Observation data for Brownfield on 02/22/2021      Previous  Date  Next       Current Mesonet Observations  Soil Data  Daily Summary Page  Observations in Plain Language
KBWS 220600Z 27007KT 02/M06 A3023 RMK A01 T00171058  RH  057%=      5-min Rain = 0
KBWS 220601Z 27007KT 02/M06 A3023 RMK A01 T00201055  RH  057%=      5-min Rain = 0
KBWS 220602Z 27008KT 02/M06 A3023 RMK A01 T00211057  RH  057%=      5-min Rain = 0
KBWS 220603Z 27006KT 02/M06 A3023 RMK A01 T00211058  RH  056%=      5-min Rain = 0
KBWS 220604Z 26006KT 02/M06 A3023 RMK A01 T00211058  RH  056%=      5-min Rain = 0
KBWS 220605Z 25007KT 02/M06 A3023 RMK A01 T00201059  RH  056%=      5-min Rain = 0
KBWS 220606Z 24008KT 02/M06 A3023 RMK A01 T00191060  RH  056%=      5-min Rain = 0
KBWS 220607Z 24008KT 02/M06 A3023 RMK A01 T00191060  RH  056%=      5-min Rain = 0
KBWS 220608Z 24009KT 02/M06 A3023 RMK A01 T00191061  RH  056%=      5-min Rain = 0
KBWS 220609Z 24008KT 02/M06 A3023 RMK A01 T00191060  RH  056%=      5-min Rain = 0
KBWS 220610Z 24008KT 02/M06 A3023 RMK A01 T00191060  RH  056%=      5-min Rain = 0
KBWS 220611Z 24008KT 02/M06 A3023 RMK A01 T00181060  RH  056%=      5-min Rain = 0
KBWS 220612Z 25009KT 02/M06 A3023 RMK A01 T00161061  RH  057%=      5-min Rain = 0
KBWS 220613Z 25008KT 01/M06 A3023 RMK A01 T00141062  RH  057%=      5-min Rain = 0
KBWS 220614Z 25008KT 01/M06 A3023 RMK A01 T00141061  RH  057%=      5-min Rain = 0
KBWS 220615Z 25007KT 02/M06 A3023 RMK A01 T00161060  RH  057%=      5-min Rain = 0
KBWS 220616Z 26007KT 02/M06 A3023 RMK A01 T00191060  RH  056%=      5-min Rain = 0
KBWS 220617Z 26007KT 02/M06 A3023 RMK A01 T00191061  RH  055%=      5-min Rain = 0
KBWS 220618Z 26006KT 02/M06 A3023 RMK A01 T00201060  RH  055%=      5-min Rain = 0
KBWS 220619Z 26008KT 02/M06 A3023 RMK A01 T00211059  RH  055%=      5-min Rain = 0
KBWS 220620Z 26008KT 02/M06 A3023 RMK A01 T00241059  RH  054%=      5-min Rain = 0
KBWS 220621Z 26008KT 03/M06 A3023 RMK A01 T00251059  RH  054%=      5-min Rain = 0
KBWS 220622Z 26008KT 03/M06 A3023 RMK A01 T00281059  RH  053%=      5-min Rain = 0
KBWS 220623Z 26007KT 03/M06 A3023 RMK A01 T00291059  RH  053%=      5-min Rain = 0
KBWS 220624Z 26008KT 03/M06 A3023 RMK A01 T00281060  RH  052%=      5-min Rain = 0
KBWS 220625Z 25008KT 03/M06 A3023 RMK A01 T00281060  RH  052%=      5-min Rain = 0
KBWS 220626Z 25008KT 03/M06 A3023 RMK A01 T00271061  RH  052%=      5-min Rain = 0
KBWS 220627Z 25008KT 03/M06 A3023 RMK A01 T00271061  RH  052%=      5-min Rain = 0
KBWS 220628Z 26008KT 03/M06 A3023 RMK A01 T00271061  RH  052%=      5-min Rain = 0
KBWS 220629Z 26008KT 03/M06 A3023 RMK A01 T00281060  RH  052%=      5-min Rain = 0
KBWS 220630Z 26007KT 03/M06 A3023 RMK A01 T00281060  RH  052%=      5-min Rain = 0
KBWS 220631Z 26007KT 03/M06 A3023 RMK A01 T00291060  RH  052%=      5-min Rain = 0
KBWS 220632Z 26008KT 03/M06 A3023 RMK A01 T00291060  RH  052%=      5-min Rain = 0
KBWS 220633Z 25008KT 03/M06 A3023 RMK A01 T00281060  RH  052%=      5-min Rain = 0
KBWS 220634Z 25008KT 03/M06 A3023 RMK A01 T00281061  RH  052%=      5-min Rain = 0
KBWS 220635Z 26008KT 03/M06 A3023 RMK A01 T00271061  RH  052%=      5-min Rain = 0
KBWS 220636Z 26008KT 03/M06 A3023 RMK A01 T00261062  RH  052%=      5-min Rain = 0
KBWS 220637Z 26008KT 03/M06 A3023 RMK A01 T00251062  RH  053%=      5-min Rain = 0
KBWS 220638Z 26008KT 03/M06 A3023 RMK A01 T00251062  RH  053%=      5-min Rain = 0
KBWS 220639Z 26007KT 03/M06 A3023 RMK A01 T00251061  RH  053%=      5-min Rain = 0
KBWS 220640Z 26007KT 03/M06 A3023 RMK A01 T00251061  RH  053%=      5-min Rain = 0
KBWS 220641Z 26007KT 03/M06 A3023 RMK A01 T00251060  RH  054%=      5-min Rain = 0
KBWS 220642Z 26007KT 02/M06 A3023 RMK A01 T00241060  RH  054%=      5-min Rain = 0
KBWS 220643Z 26007KT 02/M06 A3023 RMK A01 T00231060  RH  054%=      5-min Rain = 0
KBWS 220644Z 26007KT 02/M06 A3023 RMK A01 T00221060  RH  055%=      5-min Rain = 0
KBWS 220645Z 26006KT 02/M06 A3023 RMK A01 T00201061  RH  055%=      5-min Rain = 0
KBWS 220646Z 26006KT 02/M06 A3023 RMK A01 T00181060  RH  056%=      5-min Rain = 0
KBWS 220647Z 25007KT 02/M06 A3023 RMK A01 T00171061  RH  056%=      5-min Rain = 0
KBWS 220648Z 25008KT 02/M06 A3023 RMK A01 T00171062  RH  056%=      5-min Rain = 0
KBWS 220649Z 25007KT 02/M06 A3023 RMK A01 T00171063  RH  056%=      5-min Rain = 0
KBWS 220650Z 26007KT 02/M06 A3023 RMK A01 T00171063  RH  055%=      5-min Rain = 0
KBWS 220651Z 26007KT 02/M06 A3023 RMK A01 T00161064  RH  055%=      5-min Rain = 0
KBWS 220652Z 26007KT 02/M06 A3023 RMK A01 T00151064  RH  056%=      5-min Rain = 0
KBWS 220653Z 26006KT 02/M06 A3023 RMK A01 T00161064  RH  056%=      5-min Rain = 0
KBWS 220654Z 25007KT 02/M06 A3023 RMK A01 T00171063  RH  055%=      5-min Rain = 0
KBWS 220655Z 25006KT 02/M06 A3022 RMK A01 T00191062  RH  055%=      5-min Rain = 0
KBWS 220656Z 25007KT 02/M06 A3022 RMK A01 T00191063  RH  054%=      5-min Rain = 0
KBWS 220657Z 25007KT 02/M06 A3022 RMK A01 T00191063  RH  054%=      5-min Rain = 0
KBWS 220658Z 25007KT 02/M06 A3022 RMK A01 T00191063  RH  054%=      5-min Rain = 0
KBWS 220659Z 24007KT 02/M06 A3022 RMK A01 T00181063  RH  055%=      5-min Rain = 0
KBWS 220700Z 24007KT 02/M06 A3022 RMK A01 T00171063  RH  055%=      5-min Rain = 0
KBWS 220701Z 24007KT 02/M06 A3022 RMK A01 T00161063  RH  056%=      5-min Rain = 0
KBWS 220702Z 25007KT 02/M06 A3022 RMK A01 T00151063  RH  056%=      5-min Rain = 0
KBWS 220703Z 25008KT 01/M06 A3022 RMK A01 T00141064  RH  056%=      5-min Rain = 0
KBWS 220704Z 24008KT 01/M06 A3022 RMK A01 T00141064  RH  056%=      5-min Rain = 0
KBWS 220705Z 25008KT 02/M06 A3022 RMK A01 T00151063  RH  056%=      5-min Rain = 0
KBWS 220706Z 24009KT 02/M06 A3022 RMK A01 T00171063  RH  055%=      5-min Rain = 0
KBWS 220707Z 24009KT 02/M06 A3022 RMK A01 T00171063  RH  055%=      5-min Rain = 0
KBWS 220708Z 24008KT 02/M06 A3022 RMK A01 T00181063  RH  055%=      5-min Rain = 0
KBWS 220709Z 24008KT 02/M06 A3022 RMK A01 T00181063  RH  055%=      5-min Rain = 0
KBWS 220710Z 24008KT 02/M06 A3022 RMK A01 T00181063  RH  055%=      5-min Rain = 0
KBWS 220711Z 25008KT 02/M06 A3022 RMK A01 T00201062  RH  054%=      5-min Rain = 0
KBWS 220712Z 25008KT 02/M06 A3022 RMK A01 T00221062  RH  054%=      5-min Rain = 0
KBWS 220713Z 25008KT 02/M06 A3022 RMK A01 T00241062  RH  053%=      5-min Rain = 0
KBWS 220714Z 25007KT 03/M06 A3022 RMK A01 T00251061  RH  053%=      5-min Rain = 0
KBWS 220715Z 26006KT 03/M06 A3022 RMK A01 T00271060  RH  053%=      5-min Rain = 0
KBWS 220716Z 24007KT 03/M06 A3022 RMK A01 T00281059  RH  053%=      5-min Rain = 0
KBWS 220717Z 24007KT 03/M06 A3022 RMK A01 T00281060  RH  052%=      5-min Rain = 0
KBWS 220718Z 24007KT 03/M06 A3022 RMK A01 T00301061  RH  051%=      5-min Rain = 0
KBWS 220719Z 24007KT 03/M06 A3022 RMK A01 T00311061  RH  051%=      5-min Rain = 0
KBWS 220720Z 24007KT 03/M06 A3022 RMK A01 T00301062  RH  051%=      5-min Rain = 0
KBWS 220721Z 24007KT 03/M06 A3022 RMK A01 T00291063  RH  051%=      5-min Rain = 0
KBWS 220722Z 25007KT 03/M06 A3023 RMK A01 T00271064  RH  051%=      5-min Rain = 0
KBWS 220723Z 25007KT 03/M06 A3023 RMK A01 T00261064  RH  052%=      5-min Rain = 0
KBWS 220724Z 24007KT 03/M06 A3022 RMK A01 T00251063  RH  052%=      5-min Rain = 0
KBWS 220725Z 24006KT 02/M06 A3022 RMK A01 T00241063  RH  052%=      5-min Rain = 0
KBWS 220726Z 24006KT 02/M06 A3022 RMK A01 T00241064  RH  052%=      5-min Rain = 0
KBWS 220727Z 24006KT 02/M06 A3022 RMK A01 T00221064  RH  053%=      5-min Rain = 0
KBWS 220728Z 24005KT 02/M06 A3022 RMK A01 T00201064  RH  054%=      5-min Rain = 0
KBWS 220729Z 24006KT 02/M06 A3022 RMK A01 T00181064  RH  054%=      5-min Rain = 0
KBWS 220730Z 24005KT 02/M06 A3022 RMK A01 T00181064  RH  055%=      5-min Rain = 0
KBWS 220731Z 24006KT 02/M06 A3022 RMK A01 T00181064  RH  055%=      5-min Rain = 0
KBWS 220732Z 24006KT 02/M06 A3022 RMK A01 T00171064  RH  055%=      5-min Rain = 0
KBWS 220733Z 24006KT 02/M07 A3022 RMK A01 T00161065  RH  055%=      5-min Rain = 0
KBWS 220734Z 25006KT 01/M07 A3022 RMK A01 T00141065  RH  055%=      5-min Rain = 0
KBWS 220735Z 25006KT 01/M07 A3023 RMK A01 T00131065  RH  056%=      5-min Rain = 0
KBWS 220736Z 25006KT 01/M07 A3023 RMK A01 T00121065  RH  056%=      5-min Rain = 0
KBWS 220737Z 25005KT 01/M07 A3023 RMK A01 T00111065  RH  057%=      5-min Rain = 0
KBWS 220738Z 25006KT 01/M06 A3023 RMK A01 T00111064  RH  057%=      5-min Rain = 0
KBWS 220739Z 25006KT 01/M06 A3023 RMK A01 T00131064  RH  057%=      5-min Rain = 0
KBWS 220740Z 24007KT 01/M06 A3022 RMK A01 T00141064  RH  056%=      5-min Rain = 0
KBWS 220741Z 24007KT 01/M07 A3022 RMK A01 T00141065  RH  056%=      5-min Rain = 0
KBWS 220742Z 24008KT 01/M07 A3022 RMK A01 T00121065  RH  056%=      5-min Rain = 0
KBWS 220743Z 24008KT 01/M07 A3022 RMK A01 T00111065  RH  057%=      5-min Rain = 0
KBWS 220744Z 23008KT 01/M07 A3022 RMK A01 T00101065  RH  058%=      5-min Rain = 0
KBWS 220745Z 23008KT 01/M07 A3022 RMK A01 T00081065  RH  058%=      5-min Rain = 0
KBWS 220746Z 24008KT 01/M06 A3022 RMK A01 T00061064  RH  059%=      5-min Rain = 0
KBWS 220747Z 24008KT 01/M06 A3022 RMK A01 T00051063  RH  060%=      5-min Rain = 0
KBWS 220748Z 25008KT 00/M06 A3023 RMK A01 T00031064  RH  061%=      5-min Rain = 0
KBWS 220749Z 24008KT 00/M07 A3023 RMK A01 T00011065  RH  061%=      5-min Rain = 0
KBWS 220750Z 24008KT M00/M07 A3023 RMK A01 T10011065  RH  062%=      5-min Rain = 0
KBWS 220751Z 25008KT M00/M07 A3023 RMK A01 T10021066  RH  062%=      5-min Rain = 0
KBWS 220752Z 25009KT M00/M07 A3023 RMK A01 T10031066  RH  063%=      5-min Rain = 0
KBWS 220753Z 24008KT M01/M07 A3023 RMK A01 T10051067  RH  063%=      5-min Rain = 0
KBWS 220754Z 25009KT M01/M07 A3023 RMK A01 T10061066  RH  064%=      5-min Rain = 0
KBWS 220755Z 25009KT M01/M07 A3023 RMK A01 T10061066  RH  064%=      5-min Rain = 0
KBWS 220756Z 25008KT M01/M07 A3023 RMK A01 T10051065  RH  064%=      5-min Rain = 0
KBWS 220757Z 25008KT M01/M07 A3023 RMK A01 T10051066  RH  063%=      5-min Rain = 0
KBWS 220758Z 25007KT M01/M07 A3023 RMK A01 T10071067  RH  064%=      5-min Rain = 0
KBWS 220759Z 25007KT M01/M07 A3023 RMK A01 T10091068  RH  064%=      5-min Rain = 0
KBWS 220800Z 25007KT M01/M07 A3023 RMK A01 T10091068  RH  065%=      5-min Rain = 0
KBWS 220801Z 25008KT M01/M07 A3023 RMK A01 T10091067  RH  065%=      5-min Rain = 0
KBWS 220802Z 25008KT M01/M07 A3023 RMK A01 T10071068  RH  064%=      5-min Rain = 0
KBWS 220803Z 26008KT M01/M07 A3023 RMK A01 T10061069  RH  062%=      5-min Rain = 0
KBWS 220804Z 26008KT M01/M07 A3023 RMK A01 T10051071  RH  061%=      5-min Rain = 0
KBWS 220805Z 25008KT M00/M07 A3023 RMK A01 T10041072  RH  060%=      5-min Rain = 0
KBWS 220806Z 25007KT M00/M07 A3023 RMK A01 T10031073  RH  059%=      5-min Rain = 0
KBWS 220807Z 26007KT M00/M07 A3023 RMK A01 T10031074  RH  059%=      5-min Rain = 0
KBWS 220808Z 26007KT M00/M08 A3023 RMK A01 T10041075  RH  059%=      5-min Rain = 0
KBWS 220809Z 26007KT M01/M08 A3023 RMK A01 T10051076  RH  059%=      5-min Rain = 0
KBWS 220810Z 26007KT M01/M08 A3023 RMK A01 T10051077  RH  058%=      5-min Rain = 0
KBWS 220811Z 26008KT M01/M08 A3023 RMK A01 T10051078  RH  058%=      5-min Rain = 0
KBWS 220812Z 26008KT M00/M08 A3023 RMK A01 T10031080  RH  056%=      5-min Rain = 0
KBWS 220813Z 26008KT 00/M08 A3023 RMK A01 T00011082  RH  054%=      5-min Rain = 0
KBWS 220814Z 26007KT 00/M08 A3023 RMK A01 T00031083  RH  052%=      5-min Rain = 0
KBWS 220815Z 26008KT 00/M08 A3023 RMK A01 T00041084  RH  052%=      5-min Rain = 0
KBWS 220816Z 26008KT 00/M08 A3023 RMK A01 T00031084  RH  052%=      5-min Rain = 0
KBWS 220817Z 26008KT 00/M09 A3023 RMK A01 T00021085  RH  052%=      5-min Rain = 0
KBWS 220818Z 26008KT 00/08 A3023 RMK A01 T00000-84  RH  053%=      5-min Rain = 0
KBWS 220819Z 26008KT M00/M08 A3023 RMK A01 T10031083  RH  055%=      5-min Rain = 0
KBWS 220820Z 26009KT M00/M08 A3023 RMK A01 T10041084  RH  055%=      5-min Rain = 0
KBWS 220821Z 26010KT M00/M09 A3023 RMK A01 T10031086  RH  054%=      5-min Rain = 0
KBWS 220822Z 26009KT 00/09 A3023 RMK A01 T00-00-87  RH  052%=      5-min Rain = 0
KBWS 220823Z 26009KT 00/M09 A3023 RMK A01 T00031088  RH  050%=      5-min Rain = 0
KBWS 220824Z 26009KT 01/M09 A3023 RMK A01 T00051090  RH  049%=      5-min Rain = 0
KBWS 220825Z 26010KT 01/M09 A3023 RMK A01 T00071091  RH  048%=      5-min Rain = 0
KBWS 220826Z 26010KT 01/M09 A3023 RMK A01 T00071091  RH  048%=      5-min Rain = 0
KBWS 220827Z 26010KT 01/M09 A3023 RMK A01 T00071092  RH  047%=      5-min Rain = 0
KBWS 220828Z 26010KT 01/M09 A3023 RMK A01 T00081093  RH  047%=      5-min Rain = 0
KBWS 220829Z 26010KT 01/M09 A3023 RMK A01 T00091094  RH  046%=      5-min Rain = 0
KBWS 220830Z 27009KT 01/M10 A3024 RMK A01 T00101095  RH  045%=      5-min Rain = 0
KBWS 220831Z 27008KT 01/M10 A3024 RMK A01 T00111096  RH  045%=      5-min Rain = 0
KBWS 220832Z 27008KT 01/M10 A3024 RMK A01 T00131097  RH  044%=      5-min Rain = 0
KBWS 220833Z 26008KT 01/M10 A3024 RMK A01 T00131097  RH  044%=      5-min Rain = 0
KBWS 220834Z 26008KT 01/M10 A3023 RMK A01 T00131096  RH  044%=      5-min Rain = 0
KBWS 220835Z 26008KT 01/M10 A3023 RMK A01 T00121097  RH  044%=      5-min Rain = 0
KBWS 220836Z 26008KT 01/M10 A3023 RMK A01 T00111098  RH  044%=      5-min Rain = 0
KBWS 220837Z 26008KT 01/M10 A3023 RMK A01 T00091097  RH  045%=      5-min Rain = 0
KBWS 220838Z 26008KT 01/M10 A3023 RMK A01 T00081097  RH  045%=      5-min Rain = 0
KBWS 220839Z 26009KT 01/M10 A3023 RMK A01 T00071097  RH  046%=      5-min Rain = 0
KBWS 220840Z 26009KT 01/M10 A3023 RMK A01 T00071098  RH  045%=      5-min Rain = 0
KBWS 220841Z 26009KT 01/M10 A3023 RMK A01 T00081099  RH  045%=      5-min Rain = 0
KBWS 220842Z 27008KT 01/M10 A3023 RMK A01 T00081099  RH  045%=      5-min Rain = 0
KBWS 220843Z 27008KT 01/M10 A3023 RMK A01 T00091100  RH  044%=      5-min Rain = 0
KBWS 220844Z 26008KT 01/M10 A3023 RMK A01 T00111100  RH  043%=      5-min Rain = 0
KBWS 220845Z 26008KT 01/M10 A3023 RMK A01 T00131100  RH  043%=      5-min Rain = 0
KBWS 220846Z 26008KT 01/M10 A3023 RMK A01 T00141100  RH  042%=      5-min Rain = 0
KBWS 220847Z 26009KT 01/M10 A3023 RMK A01 T00121100  RH  043%=      5-min Rain = 0
KBWS 220848Z 27008KT 01/M10 A3023 RMK A01 T00101100  RH  044%=      5-min Rain = 0
KBWS 220849Z 26008KT 01/M10 A3023 RMK A01 T00091101  RH  044%=      5-min Rain = 0
KBWS 220850Z 26008KT 01/M10 A3023 RMK A01 T00101101  RH  044%=      5-min Rain = 0
KBWS 220851Z 26008KT 01/M10 A3023 RMK A01 T00081100  RH  044%=      5-min Rain = 0
KBWS 220852Z 26007KT 01/M10 A3023 RMK A01 T00061100  RH  045%=      5-min Rain = 0
KBWS 220853Z 26007KT 01/M10 A3023 RMK A01 T00061100  RH  045%=      5-min Rain = 0
KBWS 220854Z 26007KT 01/M10 A3023 RMK A01 T00061099  RH  045%=      5-min Rain = 0
KBWS 220855Z 25007KT 00/M10 A3023 RMK A01 T00041099  RH  046%=      5-min Rain = 0
KBWS 220856Z 25007KT 00/M10 A3023 RMK A01 T00031099  RH  047%=      5-min Rain = 0
KBWS 220857Z 25007KT 00/M10 A3023 RMK A01 T00011098  RH  048%=      5-min Rain = 0
KBWS 220858Z 25007KT M00/M10 A3023 RMK A01 T10021097  RH  049%=      5-min Rain = 0
KBWS 220859Z 25008KT M00/M10 A3023 RMK A01 T10041096  RH  050%=      5-min Rain = 0
KBWS 220900Z 25008KT M01/M10 A3023 RMK A01 T10061095  RH  051%=      5-min Rain = 0
KBWS 220901Z 24008KT M01/M09 A3023 RMK A01 T10081094  RH  052%=      5-min Rain = 0
KBWS 220902Z 24008KT M01/M09 A3023 RMK A01 T10091093  RH  053%=      5-min Rain = 0
KBWS 220903Z 24008KT M01/M09 A3023 RMK A01 T10101093  RH  053%=      5-min Rain = 0
KBWS 220904Z 25008KT M01/M09 A3023 RMK A01 T10111092  RH  054%=      5-min Rain = 0
KBWS 220905Z 25007KT M01/M09 A3023 RMK A01 T10111091  RH  054%=      5-min Rain = 0
KBWS 220906Z 25007KT M01/M09 A3023 RMK A01 T10121091  RH  055%=      5-min Rain = 0
KBWS 220907Z 25007KT M01/M09 A3023 RMK A01 T10141091  RH  056%=      5-min Rain = 0
KBWS 220908Z 25007KT M01/M09 A3023 RMK A01 T10141091  RH  056%=      5-min Rain = 0
KBWS 220909Z 25006KT M02/M09 A3023 RMK A01 T10151091  RH  056%=      5-min Rain = 0
KBWS 220910Z 25007KT M02/M09 A3023 RMK A01 T10171092  RH  056%=      5-min Rain = 0
KBWS 220911Z 25007KT M02/M09 A3023 RMK A01 T10181093  RH  057%=      5-min Rain = 0
KBWS 220912Z 25007KT M02/M09 A3023 RMK A01 T10181093  RH  057%=      5-min Rain = 0
KBWS 220913Z 25007KT M02/M09 A3023 RMK A01 T10181093  RH  057%=      5-min Rain = 0
KBWS 220914Z 25007KT M02/M09 A3023 RMK A01 T10171093  RH  056%=      5-min Rain = 0
KBWS 220915Z 25007KT M02/M09 A3023 RMK A01 T10161093  RH  056%=      5-min Rain = 0
KBWS 220916Z 25007KT M02/M09 A3023 RMK A01 T10161093  RH  056%=      5-min Rain = 0
KBWS 220917Z 26007KT M02/M09 A3023 RMK A01 T10161094  RH  055%=      5-min Rain = 0
KBWS 220918Z 26007KT M02/M09 A3023 RMK A01 T10161094  RH  055%=      5-min Rain = 0
KBWS 220919Z 26007KT M02/M09 A3023 RMK A01 T10161094  RH  055%=      5-min Rain = 0
KBWS 220920Z 26006KT M02/M09 A3023 RMK A01 T10161094  RH  055%=      5-min Rain = 0
KBWS 220921Z 27006KT M02/M09 A3023 RMK A01 T10161094  RH  055%=      5-min Rain = 0
KBWS 220922Z 27006KT M02/M09 A3023 RMK A01 T10161094  RH  055%=      5-min Rain = 0
KBWS 220923Z 27006KT M02/M09 A3023 RMK A01 T10161094  RH  055%=      5-min Rain = 0
KBWS 220924Z 27007KT M02/M09 A3023 RMK A01 T10151094  RH  055%=      5-min Rain = 0
KBWS 220925Z 27007KT M01/M09 A3023 RMK A01 T10131093  RH  054%=      5-min Rain = 0
KBWS 220926Z 27007KT M01/M09 A3023 RMK A01 T10111094  RH  053%=      5-min Rain = 0
KBWS 220927Z 27007KT M01/M09 A3023 RMK A01 T10091094  RH  053%=      5-min Rain = 0
KBWS 220928Z 27007KT M01/M10 A3023 RMK A01 T10081095  RH  052%=      5-min Rain = 0
KBWS 220929Z 27007KT M01/M10 A3023 RMK A01 T10071095  RH  051%=      5-min Rain = 0
KBWS 220930Z 27007KT M01/M10 A3023 RMK A01 T10061096  RH  051%=      5-min Rain = 0
KBWS 220931Z 27007KT M01/M10 A3023 RMK A01 T10051096  RH  050%=      5-min Rain = 0
KBWS 220932Z 27007KT M00/M10 A3023 RMK A01 T10041096  RH  050%=      5-min Rain = 0
KBWS 220933Z 27007KT M00/M10 A3023 RMK A01 T10041097  RH  050%=      5-min Rain = 0
KBWS 220934Z 27007KT M00/M10 A3023 RMK A01 T10041096  RH  050%=      5-min Rain = 0
KBWS 220935Z 27008KT M01/M10 A3023 RMK A01 T10051097  RH  050%=      5-min Rain = 0
KBWS 220936Z 27008KT M01/M10 A3023 RMK A01 T10051097  RH  050%=      5-min Rain = 0
KBWS 220937Z 27007KT M01/M10 A3023 RMK A01 T10051097  RH  050%=      5-min Rain = 0
KBWS 220938Z 27008KT M00/M10 A3023 RMK A01 T10041097  RH  050%=      5-min Rain = 0
KBWS 220939Z 27008KT M00/M10 A3023 RMK A01 T10041097  RH  050%=      5-min Rain = 0
KBWS 220940Z 27008KT M00/M10 A3023 RMK A01 T10041097  RH  050%=      5-min Rain = 0
KBWS 220941Z 27008KT M00/M10 A3023 RMK A01 T10041097  RH  050%=      5-min Rain = 0
KBWS 220942Z 27009KT M00/M10 A3023 RMK A01 T10041097  RH  050%=      5-min Rain = 0
KBWS 220943Z 27009KT M01/M10 A3023 RMK A01 T10051097  RH  050%=      5-min Rain = 0
KBWS 220944Z 27009KT M01/M10 A3023 RMK A01 T10051097  RH  050%=      5-min Rain = 0
KBWS 220945Z 27008KT M01/M10 A3023 RMK A01 T10061096  RH  050%=      5-min Rain = 0
KBWS 220946Z 27008KT M01/M10 A3023 RMK A01 T10061096  RH  051%=      5-min Rain = 0
KBWS 220947Z 27009KT M01/M10 A3023 RMK A01 T10071097  RH  051%=      5-min Rain = 0
KBWS 220948Z 27008KT M01/M10 A3023 RMK A01 T10061097  RH  050%=      5-min Rain = 0
KBWS 220949Z 27008KT M01/M10 A3023 RMK A01 T10061097  RH  050%=      5-min Rain = 0
KBWS 220950Z 28008KT M01/M10 A3023 RMK A01 T10061096  RH  051%=      5-min Rain = 0
KBWS 220951Z 28009KT M01/M10 A3022 RMK A01 T10061096  RH  051%=      5-min Rain = 0
KBWS 220952Z 28008KT M01/M10 A3022 RMK A01 T10061096  RH  051%=      5-min Rain = 0
KBWS 220953Z 28008KT M01/M10 A3022 RMK A01 T10061096  RH  051%=      5-min Rain = 0
KBWS 220954Z 28009KT M01/M10 A3022 RMK A01 T10061096  RH  051%=      5-min Rain = 0
KBWS 220955Z 27009KT M01/M10 A3022 RMK A01 T10061097  RH  050%=      5-min Rain = 0
KBWS 220956Z 27008KT M01/M10 A3022 RMK A01 T10051098  RH  049%=      5-min Rain = 0
KBWS 220957Z 27009KT M00/M10 A3022 RMK A01 T10031098  RH  049%=      5-min Rain = 0
KBWS 220958Z 27009KT M00/M10 A3022 RMK A01 T10031099  RH  048%=      5-min Rain = 0
KBWS 220959Z 27009KT M00/M10 A3022 RMK A01 T10011099  RH  048%=      5-min Rain = 0
KBWS 221000Z 27009KT M00/M10 A3022 RMK A01 T10011099  RH  047%=      5-min Rain = 0
KBWS 221001Z 27008KT M00/M10 A3022 RMK A01 T10011099  RH  047%=      5-min Rain = 0
KBWS 221002Z 27009KT M00/M10 A3022 RMK A01 T10011099  RH  048%=      5-min Rain = 0
KBWS 221003Z 27009KT M00/M10 A3022 RMK A01 T10021099  RH  048%=      5-min Rain = 0
KBWS 221004Z 28009KT M00/M10 A3022 RMK A01 T10031099  RH  048%=      5-min Rain = 0
KBWS 221005Z 28009KT M00/M10 A3022 RMK A01 T10041099  RH  049%=      5-min Rain = 0
KBWS 221006Z 28009KT M01/M10 A3022 RMK A01 T10051098  RH  049%=      5-min Rain = 0
KBWS 221007Z 28009KT M01/M10 A3022 RMK A01 T10061098  RH  050%=      5-min Rain = 0
KBWS 221008Z 28008KT M01/M10 A3022 RMK A01 T10061097  RH  050%=      5-min Rain = 0
KBWS 221009Z 28009KT M01/M10 A3022 RMK A01 T10071096  RH  051%=      5-min Rain = 0
KBWS 221010Z 28009KT M01/M10 A3022 RMK A01 T10061097  RH  051%=      5-min Rain = 0
KBWS 221011Z 28009KT M01/M10 A3022 RMK A01 T10051097  RH  050%=      5-min Rain = 0
KBWS 221012Z 28009KT M00/M10 A3022 RMK A01 T10041097  RH  049%=      5-min Rain = 0
KBWS 221013Z 28008KT M00/M10 A3022 RMK A01 T10021098  RH  049%=      5-min Rain = 0
KBWS 221014Z 28009KT M00/M10 A3021 RMK A01 T10011098  RH  048%=      5-min Rain = 0
KBWS 221015Z 28008KT M00/M10 A3021 RMK A01 T10011099  RH  048%=      5-min Rain = 0
KBWS 221016Z 28009KT M00/M10 A3021 RMK A01 T10011099  RH  047%=      5-min Rain = 0
KBWS 221017Z 28010KT 00/10 A3021 RMK A01 T00000-100  RH  047%=      5-min Rain = 0
KBWS 221018Z 28009KT 00/M10 A3021 RMK A01 T00011101  RH  046%=      5-min Rain = 0
KBWS 221019Z 28010KT 00/M10 A3021 RMK A01 T00011100  RH  046%=      5-min Rain = 0
KBWS 221020Z 28011KT 00/M10 A3021 RMK A01 T00011101  RH  046%=      5-min Rain = 0
KBWS 221021Z 28009KT 00/M10 A3021 RMK A01 T00031102  RH  045%=      5-min Rain = 0
KBWS 221022Z 28009KT 01/M10 A3021 RMK A01 T00051102  RH  045%=      5-min Rain = 0
KBWS 221023Z 28009KT 00/M10 A3021 RMK A01 T00041101  RH  045%=      5-min Rain = 0
KBWS 221024Z 28008KT 00/M10 A3021 RMK A01 T00031102  RH  045%=      5-min Rain = 0
KBWS 221025Z 28009KT 00/M10 A3021 RMK A01 T00041101  RH  045%=      5-min Rain = 0
KBWS 221026Z 28010KT 00/M10 A3021 RMK A01 T00021102  RH  046%=      5-min Rain = 0
KBWS 221027Z 28009KT 00/M10 A3021 RMK A01 T00011102  RH  046%=      5-min Rain = 0
KBWS 221028Z 28009KT 00/10 A3021 RMK A01 T00000-101  RH  046%=      5-min Rain = 0
KBWS 221029Z 29011KT 00/10 A3021 RMK A01 T00-00-101  RH  047%=      5-min Rain = 0
KBWS 221030Z 28010KT M00/M10 A3021 RMK A01 T10011101  RH  047%=      5-min Rain = 0
KBWS 221031Z 28010KT M00/M10 A3021 RMK A01 T10011102  RH  047%=      5-min Rain = 0
KBWS 221032Z 28009KT M00/M10 A3021 RMK A01 T10011102  RH  046%=      5-min Rain = 0
KBWS 221033Z 28009KT M00/M10 A3021 RMK A01 T10011101  RH  047%=      5-min Rain = 0
KBWS 221034Z 28008KT M00/M10 A3021 RMK A01 T10011101  RH  047%=      5-min Rain = 0
KBWS 221035Z 28009KT 00/10 A3021 RMK A01 T00-00-101  RH  047%=      5-min Rain = 0
KBWS 221036Z 28009KT 00/M10 A3021 RMK A01 T00011101  RH  046%=      5-min Rain = 0
KBWS 221037Z 28010KT 00/M10 A3021 RMK A01 T00011101  RH  046%=      5-min Rain = 0
KBWS 221038Z 28009KT 00/M10 A3021 RMK A01 T00031102  RH  045%=      5-min Rain = 0
KBWS 221039Z 28010KT 00/M10 A3021 RMK A01 T00031102  RH  045%=      5-min Rain = 0
KBWS 221040Z 28010KT 00/M10 A3021 RMK A01 T00031103  RH  045%=      5-min Rain = 0
KBWS 221041Z 28009KT 00/M10 A3021 RMK A01 T00031103  RH  045%=      5-min Rain = 0
KBWS 221042Z 28009KT 00/M10 A302 RMK A01 T00011103  RH  046%=      5-min Rain = 0
KBWS 221043Z 28010KT M00/M10 A302 RMK A01 T10011103  RH  046%=      5-min Rain = 0
KBWS 221044Z 28010KT M00/M10 A302 RMK A01 T10011103  RH  046%=      5-min Rain = 0
KBWS 221045Z 28010KT M00/M10 A302 RMK A01 T10011103  RH  046%=      5-min Rain = 0
KBWS 221046Z 28010KT M00/M10 A302 RMK A01 T10011103  RH  046%=      5-min Rain = 0
KBWS 221047Z 28010KT 00/10 A302 RMK A01 T00000-103  RH  046%=      5-min Rain = 0
KBWS 221048Z 28010KT 00/10 A302 RMK A01 T00000-103  RH  046%=      5-min Rain = 0
KBWS 221049Z 28009KT M00/M10 A302 RMK A01 T10011103  RH  046%=      5-min Rain = 0
KBWS 221050Z 27009KT M00/M10 A302 RMK A01 T10021102  RH  047%=      5-min Rain = 0
KBWS 221051Z 28009KT M00/M10 A302 RMK A01 T10021102  RH  047%=      5-min Rain = 0
KBWS 221052Z 27009KT M00/M10 A302 RMK A01 T10021103  RH  047%=      5-min Rain = 0
KBWS 221053Z 27008KT M00/M10 A302 RMK A01 T10021103  RH  047%=      5-min Rain = 0
KBWS 221054Z 27009KT M00/M10 A302 RMK A01 T10021103  RH  046%=      5-min Rain = 0
KBWS 221055Z 27008KT M00/M10 A302 RMK A01 T10011103  RH  046%=      5-min Rain = 0
KBWS 221056Z 27008KT M00/M10 A302 RMK A01 T10011104  RH  046%=      5-min Rain = 0
KBWS 221057Z 27008KT 00/10 A302 RMK A01 T00-00-104  RH  046%=      5-min Rain = 0
KBWS 221058Z 27009KT 00/10 A302 RMK A01 T00-00-104  RH  045%=      5-min Rain = 0
KBWS 221059Z 27009KT 00/11 A302 RMK A01 T00-00-105  RH  045%=      5-min Rain = 0
KBWS 221100Z 27009KT 00/11 A302 RMK A01 T00000-105  RH  045%=      5-min Rain = 0
KBWS 221101Z 27009KT 00/M11 A302 RMK A01 T00011106  RH  045%=      5-min Rain = 0
KBWS 221102Z 27009KT 00/M11 A302 RMK A01 T00011105  RH  045%=      5-min Rain = 0
KBWS 221103Z 27009KT 00/M11 A302 RMK A01 T00011105  RH  045%=      5-min Rain = 0
KBWS 221104Z 27009KT 00/11 A302 RMK A01 T00000-105  RH  045%=      5-min Rain = 0
KBWS 221105Z 27010KT 00/11 A302 RMK A01 T00-00-105  RH  045%=      5-min Rain = 0
KBWS 221106Z 27009KT M00/M10 A302 RMK A01 T10011104  RH  046%=      5-min Rain = 0
KBWS 221107Z 27009KT M00/M10 A302 RMK A01 T10011104  RH  046%=      5-min Rain = 0
KBWS 221108Z 27009KT M00/M10 A302 RMK A01 T10021103  RH  046%=      5-min Rain = 0
KBWS 221109Z 27009KT M00/M10 A302 RMK A01 T10021104  RH  046%=      5-min Rain = 0
KBWS 221110Z 27009KT M00/M10 A302 RMK A01 T10021104  RH  046%=      5-min Rain = 0
KBWS 221111Z 27009KT M00/M10 A302 RMK A01 T10011104  RH  046%=      5-min Rain = 0
KBWS 221112Z 26009KT 00/10 A302 RMK A01 T00-00-104  RH  046%=      5-min Rain = 0
KBWS 221113Z 26008KT 00/11 A302 RMK A01 T00000-105  RH  045%=      5-min Rain = 0
KBWS 221114Z 27009KT 00/11 A302 RMK A01 T00-00-105  RH  045%=      5-min Rain = 0
KBWS 221115Z 26008KT M00/M11 A302 RMK A01 T10011105  RH  045%=      5-min Rain = 0
KBWS 221116Z 26008KT M00/M11 A302 RMK A01 T10021105  RH  046%=      5-min Rain = 0
KBWS 221117Z 27008KT M00/M11 A302 RMK A01 T10041105  RH  046%=      5-min Rain = 0
KBWS 221118Z 27008KT M00/M11 A302 RMK A01 T10041105  RH  046%=      5-min Rain = 0
KBWS 221119Z 27008KT M00/M11 A302 RMK A01 T10041105  RH  046%=      5-min Rain = 0
KBWS 221120Z 27009KT M00/M11 A302 RMK A01 T10041105  RH  047%=      5-min Rain = 0
KBWS 221121Z 27009KT M00/M10 A302 RMK A01 T10041104  RH  047%=      5-min Rain = 0
KBWS 221122Z 27008KT M00/M10 A302 RMK A01 T10041104  RH  047%=      5-min Rain = 0
KBWS 221123Z 27008KT M00/M10 A302 RMK A01 T10041104  RH  047%=      5-min Rain = 0
KBWS 221124Z 27008KT M00/M10 A302 RMK A01 T10041103  RH  047%=      5-min Rain = 0
KBWS 221125Z 27009KT M01/M10 A302 RMK A01 T10051103  RH  047%=      5-min Rain = 0
KBWS 221126Z 27008KT M01/M10 A302 RMK A01 T10061102  RH  048%=      5-min Rain = 0
KBWS 221127Z 27008KT M01/M10 A302 RMK A01 T10061102  RH  048%=      5-min Rain = 0
KBWS 221128Z 27008KT M01/M10 A302 RMK A01 T10071102  RH  048%=      5-min Rain = 0
KBWS 221129Z 27008KT M01/M10 A302 RMK A01 T10071102  RH  048%=      5-min Rain = 0
KBWS 221130Z 27009KT M01/M10 A302 RMK A01 T10071102  RH  048%=      5-min Rain = 0
KBWS 221131Z 27009KT M01/M10 A302 RMK A01 T10071103  RH  048%=      5-min Rain = 0
KBWS 221132Z 27009KT M01/M10 A302 RMK A01 T10071103  RH  048%=      5-min Rain = 0
KBWS 221133Z 27009KT M01/M10 A302 RMK A01 T10071103  RH  048%=      5-min Rain = 0
KBWS 221134Z 27009KT M01/M10 A302 RMK A01 T10071103  RH  048%=      5-min Rain = 0
KBWS 221135Z 27010KT M01/M10 A302 RMK A01 T10071103  RH  048%=      5-min Rain = 0
KBWS 221136Z 27010KT M01/M10 A302 RMK A01 T10071103  RH  048%=      5-min Rain = 0
KBWS 221137Z 27009KT M01/M10 A302 RMK A01 T10071103  RH  048%=      5-min Rain = 0
KBWS 221138Z 27009KT M01/M10 A302 RMK A01 T10071103  RH  048%=      5-min Rain = 0
KBWS 221139Z 27009KT M01/M10 A302 RMK A01 T10071102  RH  048%=      5-min Rain = 0
KBWS 221140Z 27009KT M01/M10 A302 RMK A01 T10081102  RH  049%=      5-min Rain = 0
KBWS 221141Z 27009KT M01/M10 A302 RMK A01 T10081103  RH  049%=      5-min Rain = 0
KBWS 221142Z 28009KT M01/M10 A302 RMK A01 T10081103  RH  049%=      5-min Rain = 0
KBWS 221143Z 28010KT M01/M10 A302 RMK A01 T10091102  RH  049%=      5-min Rain = 0
KBWS 221144Z 28010KT M01/M10 A302 RMK A01 T10091103  RH  049%=      5-min Rain = 0
KBWS 221145Z 28011KT M01/M10 A302 RMK A01 T10091103  RH  049%=      5-min Rain = 0
KBWS 221146Z 28011KT M01/M10 A302 RMK A01 T10081104  RH  048%=      5-min Rain = 0
KBWS 221147Z 28011KT M01/M10 A302 RMK A01 T10081103  RH  048%=      5-min Rain = 0
KBWS 221148Z 28012KT M01/M10 A302 RMK A01 T10071103  RH  048%=      5-min Rain = 0
KBWS 221149Z 28012KT M01/M10 A302 RMK A01 T10051103  RH  047%=      5-min Rain = 0
KBWS 221150Z 28012KT M00/M10 A302 RMK A01 T10031104  RH  046%=      5-min Rain = 0
KBWS 221151Z 28013KT 00/10 A302 RMK A01 T00000-104  RH  045%=      5-min Rain = 0
KBWS 221152Z 28012KT 00/M11 A302 RMK A01 T00021105  RH  044%=      5-min Rain = 0
KBWS 221153Z 28012KT 00/M11 A302 RMK A01 T00031105  RH  044%=      5-min Rain = 0
KBWS 221154Z 28011KT 00/M11 A302 RMK A01 T00031106  RH  044%=      5-min Rain = 0
KBWS 221155Z 28011KT 00/M11 A302 RMK A01 T00031106  RH  044%=      5-min Rain = 0
KBWS 221156Z 28012KT 00/M11 A302 RMK A01 T00021107  RH  044%=      5-min Rain = 0
KBWS 221157Z 28011KT 00/M11 A302 RMK A01 T00011107  RH  044%=      5-min Rain = 0
KBWS 221158Z 28011KT M00/M11 A302 RMK A01 T10011106  RH  045%=      5-min Rain = 0
KBWS 221159Z 28011KT M00/M11 A302 RMK A01 T10021106  RH  045%=      5-min Rain = 0
KBWS 221200Z 28011KT M00/M11 A302 RMK A01 T10041106  RH  046%=      5-min Rain = 0
KBWS 221201Z 28011KT M01/M11 A302 RMK A01 T10051106  RH  047%=      5-min Rain = 0
KBWS 221202Z 28011KT M01/M11 A302 RMK A01 T10061106  RH  047%=      5-min Rain = 0
KBWS 221203Z 28011KT M01/M11 A302 RMK A01 T10061106  RH  047%=      5-min Rain = 0
KBWS 221204Z 28011KT M01/M11 A302 RMK A01 T10071106  RH  047%=      5-min Rain = 0
KBWS 221205Z 28011KT M01/M11 A302 RMK A01 T10061106  RH  047%=      5-min Rain = 0
KBWS 221206Z 29012KT M01/M11 A302 RMK A01 T10061106  RH  047%=      5-min Rain = 0
KBWS 221207Z 28011KT M01/M11 A302 RMK A01 T10051106  RH  046%=      5-min Rain = 0
KBWS 221208Z 29011KT M00/M11 A302 RMK A01 T10041106  RH  046%=      5-min Rain = 0
KBWS 221209Z 29011KT M00/M11 A302 RMK A01 T10041106  RH  046%=      5-min Rain = 0
KBWS 221210Z 28011KT M00/M11 A302 RMK A01 T10041107  RH  046%=      5-min Rain = 0
KBWS 221211Z 29011KT M00/M11 A302 RMK A01 T10041106  RH  046%=      5-min Rain = 0
KBWS 221212Z 28011KT M00/M11 A302 RMK A01 T10041106  RH  046%=      5-min Rain = 0
KBWS 221213Z 29011KT M01/M11 A302 RMK A01 T10051106  RH  046%=      5-min Rain = 0
KBWS 221214Z 28012KT M00/M11 A302 RMK A01 T10041106  RH  046%=      5-min Rain = 0
KBWS 221215Z 28011KT M00/M11 A302 RMK A01 T10041107  RH  046%=      5-min Rain = 0
KBWS 221216Z 28012KT M00/M11 A302 RMK A01 T10041106  RH  046%=      5-min Rain = 0
KBWS 221217Z 28010KT M00/M11 A302 RMK A01 T10021106  RH  046%=      5-min Rain = 0
KBWS 221218Z 28010KT M00/M11 A302 RMK A01 T10021106  RH  045%=      5-min Rain = 0
KBWS 221219Z 29011KT M00/M11 A302 RMK A01 T10011106  RH  045%=      5-min Rain = 0
KBWS 221220Z 28010KT 00/11 A302 RMK A01 T00-00-107  RH  045%=      5-min Rain = 0
KBWS 221221Z 28011G16KT M00/M11 A302 RMK A01 T10011106  RH  045%=      5-min Rain = 0
KBWS 221222Z 28011G16KT M00/M11 A302 RMK A01 T10011107  RH  045%=      5-min Rain = 0
KBWS 221223Z 29011KT 00/11 A302 RMK A01 T00000-107  RH  044%=      5-min Rain = 0
KBWS 221224Z 29012KT 00/M11 A302 RMK A01 T00011107  RH  044%=      5-min Rain = 0
KBWS 221225Z 29012KT 00/M11 A302 RMK A01 T00031107  RH  043%=      5-min Rain = 0
KBWS 221226Z 29011KT 00/M11 A302 RMK A01 T00041108  RH  043%=      5-min Rain = 0
KBWS 221227Z 29011KT 00/M11 A302 RMK A01 T00021108  RH  043%=      5-min Rain = 0
KBWS 221228Z 29012KT 00/M11 A302 RMK A01 T00011108  RH  044%=      5-min Rain = 0
KBWS 221229Z 29013KT 00/M11 A302 RMK A01 T00011108  RH  044%=      5-min Rain = 0
KBWS 221230Z 29013KT 00/M11 A302 RMK A01 T00021108  RH  043%=      5-min Rain = 0
KBWS 221231Z 29013KT 00/M11 A302 RMK A01 T00021109  RH  043%=      5-min Rain = 0
KBWS 221232Z 29013KT 00/M11 A302 RMK A01 T00021108  RH  043%=      5-min Rain = 0
KBWS 221233Z 29013KT 00/M11 A302 RMK A01 T00011108  RH  044%=      5-min Rain = 0
KBWS 221234Z 29012KT 00/11 A302 RMK A01 T00000-108  RH  044%=      5-min Rain = 0
KBWS 221235Z 29012KT M00/M11 A302 RMK A01 T10011108  RH  044%=      5-min Rain = 0
KBWS 221236Z 29012KT M00/M11 A302 RMK A01 T10021107  RH  045%=      5-min Rain = 0
KBWS 221237Z 29011KT M00/M11 A302 RMK A01 T10031107  RH  046%=      5-min Rain = 0
KBWS 221238Z 29012KT M00/M11 A302 RMK A01 T10041106  RH  046%=      5-min Rain = 0
KBWS 221239Z 29012KT M00/M11 A302 RMK A01 T10031106  RH  046%=      5-min Rain = 0
KBWS 221240Z 29012KT M00/M11 A302 RMK A01 T10021106  RH  046%=      5-min Rain = 0
KBWS 221241Z 29013KT M00/M11 A302 RMK A01 T10011106  RH  045%=      5-min Rain = 0
KBWS 221242Z 29012KT 00/M11 A302 RMK A01 T00011106  RH  045%=      5-min Rain = 0
KBWS 221243Z 29013KT 00/M11 A302 RMK A01 T00011106  RH  044%=      5-min Rain = 0
KBWS 221244Z 29013KT 00/M11 A302 RMK A01 T00021106  RH  044%=      5-min Rain = 0
KBWS 221245Z 29014KT 00/M11 A302 RMK A01 T00031107  RH  044%=      5-min Rain = 0
KBWS 221246Z 29013KT 00/M11 A302 RMK A01 T00041107  RH  043%=      5-min Rain = 0
KBWS 221247Z 29013KT 00/M11 A302 RMK A01 T00041108  RH  043%=      5-min Rain = 0
KBWS 221248Z 29013KT 00/M11 A302 RMK A01 T00041108  RH  043%=      5-min Rain = 0
KBWS 221249Z 29013KT 00/M11 A302 RMK A01 T00031107  RH  043%=      5-min Rain = 0
KBWS 221250Z 29012KT 00/M11 A302 RMK A01 T00021107  RH  044%=      5-min Rain = 0
KBWS 221251Z 29012KT 00/M11 A302 RMK A01 T00021107  RH  044%=      5-min Rain = 0
KBWS 221252Z 29012KT 00/M11 A302 RMK A01 T00011107  RH  044%=      5-min Rain = 0
KBWS 221253Z 29012KT 00/11 A302 RMK A01 T00000-106  RH  045%=      5-min Rain = 0
KBWS 221254Z 29012KT 00/11 A302 RMK A01 T00-00-106  RH  045%=      5-min Rain = 0
KBWS 221255Z 29012KT 00/11 A302 RMK A01 T00000-107  RH  045%=      5-min Rain = 0
KBWS 221256Z 29013KT 00/M11 A302 RMK A01 T00011107  RH  044%=      5-min Rain = 0
KBWS 221257Z 29013KT 00/M11 A302 RMK A01 T00021107  RH  044%=      5-min Rain = 0
KBWS 221258Z 29013KT 00/M11 A302 RMK A01 T00031107  RH  043%=      5-min Rain = 0
KBWS 221259Z 29013KT 00/M11 A302 RMK A01 T00031108  RH  043%=      5-min Rain = 0
KBWS 221300Z 29013KT 00/M11 A302 RMK A01 T00031108  RH  043%=      5-min Rain = 0
KBWS 221301Z 29013KT 00/M11 A302 RMK A01 T00041108  RH  043%=      5-min Rain = 0
KBWS 221302Z 29013KT 00/M11 A302 RMK A01 T00041108  RH  043%=      5-min Rain = 0
KBWS 221303Z 29013KT 00/M11 A302 RMK A01 T00041108  RH  043%=      5-min Rain = 0
KBWS 221304Z 29012KT 00/M11 A302 RMK A01 T00041108  RH  043%=      5-min Rain = 0
KBWS 221305Z 29012KT 00/M11 A302 RMK A01 T00041108  RH  043%=      5-min Rain = 0
KBWS 221306Z 29011KT 00/M11 A302 RMK A01 T00031108  RH  043%=      5-min Rain = 0
KBWS 221307Z 29011KT 00/M11 A302 RMK A01 T00021107  RH  044%=      5-min Rain = 0
KBWS 221308Z 29011KT 00/M11 A302 RMK A01 T00011107  RH  044%=      5-min Rain = 0
KBWS 221309Z 29010KT 00/11 A302 RMK A01 T00-00-107  RH  045%=      5-min Rain = 0
KBWS 221310Z 29010KT M00/M11 A302 RMK A01 T10011107  RH  045%=      5-min Rain = 0
KBWS 221311Z 29010KT M00/M11 A302 RMK A01 T10021106  RH  045%=      5-min Rain = 0
KBWS 221312Z 29010KT M00/M11 A302 RMK A01 T10021106  RH  045%=      5-min Rain = 0
KBWS 221313Z 29009KT M00/M11 A302 RMK A01 T10021106  RH  045%=      5-min Rain = 0
KBWS 221314Z 29009KT M00/M11 A302 RMK A01 T10021107  RH  045%=      5-min Rain = 0
KBWS 221315Z 29010KT M00/M11 A302 RMK A01 T10021107  RH  045%=      5-min Rain = 0
KBWS 221316Z 29011KT M00/M11 A302 RMK A01 T10021107  RH  045%=      5-min Rain = 0
KBWS 221317Z 29010KT M00/M11 A302 RMK A01 T10021107  RH  045%=      5-min Rain = 0
KBWS 221318Z 29010KT M00/M11 A302 RMK A01 T10011107  RH  045%=      5-min Rain = 0
KBWS 221319Z 29010KT M00/M11 A302 RMK A01 T10021107  RH  045%=      5-min Rain = 0
KBWS 221320Z 28010KT M00/M11 A302 RMK A01 T10021107  RH  045%=      5-min Rain = 0
KBWS 221321Z 28010KT M00/M11 A302 RMK A01 T10031106  RH  045%=      5-min Rain = 0
KBWS 221322Z 28009KT M00/M11 A302 RMK A01 T10031107  RH  046%=      5-min Rain = 0
KBWS 221323Z 28008KT M00/M11 A302 RMK A01 T10041106  RH  046%=      5-min Rain = 0
KBWS 221324Z 28008KT M00/M11 A302 RMK A01 T10041106  RH  046%=      5-min Rain = 0
KBWS 221325Z 27007KT M00/M11 A302 RMK A01 T10041106  RH  046%=      5-min Rain = 0
KBWS 221326Z 28008KT M00/M11 A302 RMK A01 T10041106  RH  046%=      5-min Rain = 0
KBWS 221327Z 28008KT M00/M11 A302 RMK A01 T10041105  RH  046%=      5-min Rain = 0
KBWS 221328Z 28009KT M00/M11 A302 RMK A01 T10031105  RH  046%=      5-min Rain = 0
KBWS 221329Z 28009KT M00/M11 A302 RMK A01 T10031105  RH  046%=      5-min Rain = 0
KBWS 221330Z 28008KT M00/M11 A302 RMK A01 T10031105  RH  046%=      5-min Rain = 0
KBWS 221331Z 28008KT M00/M11 A302 RMK A01 T10031105  RH  046%=      5-min Rain = 0
KBWS 221332Z 28009KT M00/M11 A3021 RMK A01 T10031106  RH  046%=      5-min Rain = 0
KBWS 221333Z 28008KT M00/M11 A302 RMK A01 T10021106  RH  046%=      5-min Rain = 0
KBWS 221334Z 28009KT M00/M11 A302 RMK A01 T10021106  RH  046%=      5-min Rain = 0
KBWS 221335Z 28008KT M00/M11 A302 RMK A01 T10021106  RH  045%=      5-min Rain = 0
KBWS 221336Z 28009KT M00/M11 A3021 RMK A01 T10021106  RH  045%=      5-min Rain = 0
KBWS 221337Z 28009KT M00/M11 A3021 RMK A01 T10021106  RH  045%=      5-min Rain = 0
KBWS 221338Z 28009KT M00/M11 A3021 RMK A01 T10021105  RH  046%=      5-min Rain = 0
KBWS 221339Z 28008KT M00/M11 A3021 RMK A01 T10021105  RH  046%=      5-min Rain = 0
KBWS 221340Z 28008KT M00/M11 A302 RMK A01 T10021105  RH  046%=      5-min Rain = 0
KBWS 221341Z 27008KT M00/M11 A3021 RMK A01 T10021105  RH  045%=      5-min Rain = 0
KBWS 221342Z 26009KT M00/M11 A3021 RMK A01 T10011106  RH  045%=      5-min Rain = 0
KBWS 221343Z 25008KT 00/11 A3021 RMK A01 T00000-107  RH  044%=      5-min Rain = 0
KBWS 221344Z 25008KT 00/M11 A3021 RMK A01 T00011106  RH  044%=      5-min Rain = 0
KBWS 221345Z 26008KT M00/M11 A3021 RMK A01 T10011106  RH  045%=      5-min Rain = 0
KBWS 221346Z 26008KT M00/M11 A3021 RMK A01 T10031106  RH  046%=      5-min Rain = 0
KBWS 221347Z 25009KT M01/M11 A3021 RMK A01 T10051106  RH  047%=      5-min Rain = 0
KBWS 221348Z 26008KT M01/M11 A3021 RMK A01 T10071105  RH  047%=      5-min Rain = 0
KBWS 221349Z 27009KT M01/M11 A3021 RMK A01 T10071105  RH  047%=      5-min Rain = 0
KBWS 221350Z 26009KT M00/M11 A3021 RMK A01 T10041105  RH  047%=      5-min Rain = 0
KBWS 221351Z 26008KT M00/M11 A3021 RMK A01 T10021105  RH  046%=      5-min Rain = 0
KBWS 221352Z 26009KT M00/M11 A3021 RMK A01 T10021105  RH  046%=      5-min Rain = 0
KBWS 221353Z 27009KT M00/M11 A3021 RMK A01 T10031106  RH  046%=      5-min Rain = 0
KBWS 221354Z 27009KT 00/11 A3021 RMK A01 T00000-106  RH  045%=      5-min Rain = 0
KBWS 221355Z 26009KT 00/M11 A3021 RMK A01 T00041106  RH  043%=      5-min Rain = 0
KBWS 221356Z 26009KT 01/M11 A3021 RMK A01 T00061107  RH  042%=      5-min Rain = 0
KBWS 221357Z 26009KT 01/M11 A3021 RMK A01 T00051107  RH  043%=      5-min Rain = 0
KBWS 221358Z 26010KT 00/M11 A3021 RMK A01 T00041107  RH  043%=      5-min Rain = 0
KBWS 221359Z 26010KT 00/M11 A3021 RMK A01 T00041108  RH  043%=      5-min Rain = 0
KBWS 221400Z 26010KT 01/M11 A3021 RMK A01 T00071108  RH  042%=      5-min Rain = 0
KBWS 221401Z 26010KT 01/M11 A3021 RMK A01 T00081107  RH  042%=      5-min Rain = 0
KBWS 221402Z 25009KT 01/M11 A3021 RMK A01 T00081107  RH  042%=      5-min Rain = 0
KBWS 221403Z 26009KT 01/M11 A3021 RMK A01 T00061105  RH  043%=      5-min Rain = 0
KBWS 221404Z 26009KT 00/M11 A3021 RMK A01 T00031105  RH  044%=      5-min Rain = 0
KBWS 221405Z 26010KT 00/M10 A3021 RMK A01 T00031104  RH  045%=      5-min Rain = 0
KBWS 221406Z 26010KT 00/M11 A3021 RMK A01 T00041105  RH  044%=      5-min Rain = 0
KBWS 221407Z 26010KT 01/M11 A3021 RMK A01 T00071106  RH  043%=      5-min Rain = 0
KBWS 221408Z 27010KT 01/M11 A3021 RMK A01 T00101106  RH  042%=      5-min Rain = 0
KBWS 221409Z 27010KT 01/M11 A3021 RMK A01 T00121106  RH  041%=      5-min Rain = 0
KBWS 221410Z 27010KT 01/M11 A3021 RMK A01 T00141107  RH  040%=      5-min Rain = 0
KBWS 221411Z 27010KT 02/M11 A3021 RMK A01 T00161106  RH  040%=      5-min Rain = 0
KBWS 221412Z 27010G15KT 02/M11 A3021 RMK A01 T00171106  RH  040%=      5-min Rain = 0
KBWS 221413Z 27011KT 02/M11 A3021 RMK A01 T00171107  RH  039%=      5-min Rain = 0
KBWS 221414Z 27009KT 02/M11 A3021 RMK A01 T00181107  RH  039%=      5-min Rain = 0
KBWS 221415Z 27009KT 02/M11 A3021 RMK A01 T00191106  RH  039%=      5-min Rain = 0
KBWS 221416Z 27009KT 02/M11 A3021 RMK A01 T00181105  RH  040%=      5-min Rain = 0
KBWS 221417Z 27010KT 02/M10 A3021 RMK A01 T00181104  RH  040%=      5-min Rain = 0
KBWS 221418Z 27010KT 02/M11 A3021 RMK A01 T00181105  RH  040%=      5-min Rain = 0
KBWS 221419Z 27011KT 02/M11 A3021 RMK A01 T00181105  RH  039%=      5-min Rain = 0
KBWS 221420Z 27010KT 02/M10 A3021 RMK A01 T00191104  RH  040%=      5-min Rain = 0
KBWS 221421Z 27010KT 02/M10 A3021 RMK A01 T00201104  RH  039%=      5-min Rain = 0
KBWS 221422Z 27011G16KT 02/M11 A3021 RMK A01 T00211105  RH  039%=      5-min Rain = 0
KBWS 221423Z 27010KT 02/M11 A3021 RMK A01 T00221105  RH  039%=      5-min Rain = 0
KBWS 221424Z 28010KT 02/M10 A3021 RMK A01 T00231104  RH  039%=      5-min Rain = 0
KBWS 221425Z 28010G15KT 02/M11 A3021 RMK A01 T00241105  RH  038%=      5-min Rain = 0
KBWS 221426Z 28011KT 03/M11 A3021 RMK A01 T00251105  RH  038%=      5-min Rain = 0
KBWS 221427Z 28011KT 03/M11 A3021 RMK A01 T00261105  RH  037%=      5-min Rain = 0
KBWS 221428Z 28012KT 03/M11 A3021 RMK A01 T00271106  RH  037%=      5-min Rain = 0
KBWS 221429Z 29012KT 03/M11 A3021 RMK A01 T00291106  RH  036%=      5-min Rain = 0
KBWS 221430Z 29010KT 03/M11 A3021 RMK A01 T00311106  RH  036%=      5-min Rain = 0
KBWS 221431Z 29011KT 03/M11 A3021 RMK A01 T00331105  RH  035%=      5-min Rain = 0
KBWS 221432Z 29011KT 03/M11 A3021 RMK A01 T00331105  RH  036%=      5-min Rain = 0
KBWS 221433Z 29011KT 03/M10 A3021 RMK A01 T00321104  RH  036%=      5-min Rain = 0
KBWS 221434Z 28011KT 03/M10 A3021 RMK A01 T00331103  RH  036%=      5-min Rain = 0
KBWS 221435Z 28011KT 04/M10 A3021 RMK A01 T00351102  RH  036%=      5-min Rain = 0
KBWS 221436Z 27010KT 04/M10 A3021 RMK A01 T00401103  RH  035%=      5-min Rain = 0
KBWS 221437Z 27010KT 04/M10 A3021 RMK A01 T00421103  RH  034%=      5-min Rain = 0
KBWS 221438Z 28012KT 04/M10 A3021 RMK A01 T00431102  RH  034%=      5-min Rain = 0
KBWS 221439Z 28012KT 04/M10 A3021 RMK A01 T00431102  RH  034%=      5-min Rain = 0
KBWS 221440Z 28011KT 04/M10 A3021 RMK A01 T00441102  RH  034%=      5-min Rain = 0
KBWS 221441Z 28011KT 05/M10 A3021 RMK A01 T00451101  RH  034%=      5-min Rain = 0
KBWS 221442Z 28012KT 05/M10 A3021 RMK A01 T00461101  RH  034%=      5-min Rain = 0
KBWS 221443Z 27012KT 05/M10 A3021 RMK A01 T00481101  RH  033%=      5-min Rain = 0
KBWS 221444Z 27012KT 05/M10 A3021 RMK A01 T00501101  RH  033%=      5-min Rain = 0
KBWS 221445Z 27011KT 05/M10 A3021 RMK A01 T00511102  RH  032%=      5-min Rain = 0
KBWS 221446Z 27010KT 05/M10 A3021 RMK A01 T00521099  RH  033%=      5-min Rain = 0
KBWS 221447Z 27009KT 05/M10 A3021 RMK A01 T00531096  RH  033%=      5-min Rain = 0
KBWS 221448Z 27010KT 06/M10 A3021 RMK A01 T00551098  RH  032%=      5-min Rain = 0
KBWS 221449Z 27009KT 06/M10 A3021 RMK A01 T00571097  RH  032%=      5-min Rain = 0
KBWS 221450Z 27009KT 06/M10 A3021 RMK A01 T00581095  RH  032%=      5-min Rain = 0
KBWS 221451Z 27009KT 06/M10 A3021 RMK A01 T00601095  RH  032%=      5-min Rain = 0
KBWS 221452Z 27010KT 06/M10 A3021 RMK A01 T00621095  RH  031%=      5-min Rain = 0
KBWS 221453Z 27010KT 06/M10 A3021 RMK A01 T00631096  RH  031%=      5-min Rain = 0
KBWS 221454Z 27009KT 06/M10 A3021 RMK A01 T00641098  RH  030%=      5-min Rain = 0
KBWS 221455Z 27009KT 07/M10 A3021 RMK A01 T00651095  RH  031%=      5-min Rain = 0
KBWS 221456Z 27010KT 07/M09 A3021 RMK A01 T00671094  RH  031%=      5-min Rain = 0
KBWS 221457Z 27010KT 07/M10 A3021 RMK A01 T00701095  RH  030%=      5-min Rain = 0
KBWS 221458Z 27011KT 07/M10 A3021 RMK A01 T00711097  RH  029%=      5-min Rain = 0
KBWS 221459Z 27010KT 07/M10 A3021 RMK A01 T00731099  RH  028%=      5-min Rain = 0
KBWS 221500Z 27010G15KT 08/M10 A3021 RMK A01 T00751097  RH  028%=      5-min Rain = 0
KBWS 221501Z 27010KT 08/M10 A3021 RMK A01 T00761100  RH  028%=      5-min Rain = 0
KBWS 221502Z 27011KT 08/M10 A3022 RMK A01 T00771100  RH  027%=      5-min Rain = 0
KBWS 221503Z 27011KT 08/M10 A3022 RMK A01 T00771100  RH  027%=      5-min Rain = 0
KBWS 221504Z 27012KT 08/M10 A3022 RMK A01 T00781101  RH  027%=      5-min Rain = 0
KBWS 221505Z 27012G18KT 08/M10 A3022 RMK A01 T00791102  RH  026%=      5-min Rain = 0
KBWS 221506Z 27012G17KT 08/M10 A3022 RMK A01 T00801103  RH  026%=      5-min Rain = 0
KBWS 221507Z 27014KT 08/M10 A3022 RMK A01 T00821102  RH  026%=      5-min Rain = 0
KBWS 221508Z 27012KT 08/M10 A3022 RMK A01 T00831103  RH  026%=      5-min Rain = 0
KBWS 221509Z 27013KT 08/M10 A3022 RMK A01 T00841103  RH  026%=      5-min Rain = 0
KBWS 221510Z 26011KT 09/M10 A3022 RMK A01 T00861102  RH  025%=      5-min Rain = 0
KBWS 221511Z 26012KT 09/M10 A3022 RMK A01 T00881101  RH  025%=      5-min Rain = 0
KBWS 221512Z 26011KT 09/M10 A3022 RMK A01 T00891100  RH  025%=      5-min Rain = 0
KBWS 221513Z 26013KT 09/M10 A3022 RMK A01 T00911098  RH  025%=      5-min Rain = 0
KBWS 221514Z 25014KT 09/M10 A3022 RMK A01 T00921099  RH  025%=      5-min Rain = 0
KBWS 221515Z 25013G18KT 09/M10 A3022 RMK A01 T00931097  RH  025%=      5-min Rain = 0
KBWS 221516Z 25014KT 09/M10 A3022 RMK A01 T00941098  RH  025%=      5-min Rain = 0
KBWS 221517Z 25014KT 10/M10 A3022 RMK A01 T00951098  RH  025%=      5-min Rain = 0
KBWS 221518Z 25015KT 10/M10 A3022 RMK A01 T00951098  RH  024%=      5-min Rain = 0
KBWS 221519Z 25014G19KT 10/M10 A3022 RMK A01 T00961100  RH  024%=      5-min Rain = 0
KBWS 221520Z 26016G22KT 10/M10 A3022 RMK A01 T00971100  RH  024%=      5-min Rain = 0
KBWS 221521Z 26013G20KT 10/M10 A3022 RMK A01 T00991102  RH  023%=      5-min Rain = 0
KBWS 221522Z 26015G20KT 10/M10 A3022 RMK A01 T01021100  RH  023%=      5-min Rain = 0
KBWS 221523Z 25013KT 10/M10 A3022 RMK A01 T01041101  RH  023%=      5-min Rain = 0
KBWS 221524Z 25013KT 11/M10 A3022 RMK A01 T01051096  RH  023%=      5-min Rain = 0
KBWS 221525Z 25014KT 11/M10 A3022 RMK A01 T01051097  RH  023%=      5-min Rain = 0
KBWS 221526Z 25016KT 10/M10 A3022 RMK A01 T01041100  RH  023%=      5-min Rain = 0
KBWS 221527Z 25017KT 10/M10 A3022 RMK A01 T01041103  RH  022%=      5-min Rain = 0
KBWS 221528Z 25014KT 10/M11 A3022 RMK A01 T01031105  RH  022%=      5-min Rain = 0
KBWS 221529Z 26014KT 10/M10 A3022 RMK A01 T01031103  RH  022%=      5-min Rain = 0
KBWS 221530Z 26014KT 10/M10 A3022 RMK A01 T01031104  RH  022%=      5-min Rain = 0
KBWS 221531Z 26013G19KT 10/M11 A3022 RMK A01 T01031106  RH  022%=      5-min Rain = 0
KBWS 221532Z 26011KT 10/M10 A3022 RMK A01 T01041101  RH  023%=      5-min Rain = 0
KBWS 221533Z 25014KT 11/M10 A3022 RMK A01 T01051101  RH  022%=      5-min Rain = 0
KBWS 221534Z 25012KT 11/M10 A3022 RMK A01 T01051100  RH  023%=      5-min Rain = 0
KBWS 221535Z 25013KT 11/M10 A3023 RMK A01 T01051098  RH  023%=      5-min Rain = 0
KBWS 221536Z 25014KT 11/M10 A3022 RMK A01 T01061098  RH  023%=      5-min Rain = 0
KBWS 221537Z 26014KT 11/M10 A3022 RMK A01 T01071101  RH  022%=      5-min Rain = 0
KBWS 221538Z 26012KT 11/M10 A3023 RMK A01 T01071103  RH  022%=      5-min Rain = 0
KBWS 221539Z 26014G20KT 11/M10 A3023 RMK A01 T01081101  RH  022%=      5-min Rain = 0
KBWS 221540Z 26013KT 11/M10 A3023 RMK A01 T01081104  RH  021%=      5-min Rain = 0
KBWS 221541Z 25015KT 11/M10 A3022 RMK A01 T01091104  RH  021%=      5-min Rain = 0
KBWS 221542Z 27013KT 11/M10 A3023 RMK A01 T01091104  RH  021%=      5-min Rain = 0
KBWS 221543Z 26013KT 11/M11 A3023 RMK A01 T01091105  RH  021%=      5-min Rain = 0
KBWS 221544Z 26014KT 11/M10 A3022 RMK A01 T01091103  RH  021%=      5-min Rain = 0
KBWS 221545Z 26013KT 11/M10 A3022 RMK A01 T01091104  RH  021%=      5-min Rain = 0
KBWS 221546Z 26014KT 11/M11 A3022 RMK A01 T01091105  RH  021%=      5-min Rain = 0
KBWS 221547Z 26014G19KT 11/M11 A3022 RMK A01 T01091106  RH  021%=      5-min Rain = 0
KBWS 221548Z 26011KT 11/M11 A3022 RMK A01 T01091105  RH  021%=      5-min Rain = 0
KBWS 221549Z 26013KT 11/M10 A3022 RMK A01 T01091101  RH  022%=      5-min Rain = 0
KBWS 221550Z 26013KT 11/M10 A3022 RMK A01 T01091103  RH  021%=      5-min Rain = 0
KBWS 221551Z 26014KT 11/M10 A3023 RMK A01 T01091102  RH  022%=      5-min Rain = 0
KBWS 221552Z 26014KT 11/M10 A3023 RMK A01 T01091101  RH  022%=      5-min Rain = 0
KBWS 221553Z 26014KT 11/M10 A3023 RMK A01 T01091101  RH  022%=      5-min Rain = 0
KBWS 221554Z 26013KT 11/M10 A3023 RMK A01 T01081103  RH  022%=      5-min Rain = 0
KBWS 221555Z 26011KT 11/M10 A3023 RMK A01 T01081102  RH  022%=      5-min Rain = 0
KBWS 221556Z 27010KT 11/M10 A3023 RMK A01 T01081099  RH  022%=      5-min Rain = 0
KBWS 221557Z 26012G17KT 11/M10 A3023 RMK A01 T01091097  RH  023%=      5-min Rain = 0
KBWS 221558Z 26013KT 11/M10 A3023 RMK A01 T01101100  RH  022%=      5-min Rain = 0
KBWS 221559Z 26016KT 11/M10 A3023 RMK A01 T01091102  RH  022%=      5-min Rain = 0
KBWS 221600Z 26013G18KT 11/M11 A3023 RMK A01 T01081105  RH  021%=      5-min Rain = 0
KBWS 221601Z 27013KT 11/M10 A3023 RMK A01 T01081102  RH  022%=      5-min Rain = 0
KBWS 221602Z 27013G18KT 11/M10 A3023 RMK A01 T01101098  RH  022%=      5-min Rain = 0
KBWS 221603Z 27016KT 11/M11 A3023 RMK A01 T01101105  RH  021%=      5-min Rain = 0
KBWS 221604Z 27015KT 11/M11 A3023 RMK A01 T01091107  RH  021%=      5-min Rain = 0
KBWS 221605Z 26015G20KT 11/M11 A3023 RMK A01 T01091106  RH  021%=      5-min Rain = 0
KBWS 221606Z 26016G21KT 11/M11 A3023 RMK A01 T01111107  RH  021%=      5-min Rain = 0
KBWS 221607Z 26018G23KT 11/M11 A3023 RMK A01 T01111111  RH  020%=      5-min Rain = 0
KBWS 221608Z 27017G22KT 11/M11 A3023 RMK A01 T01111112  RH  020%=      5-min Rain = 0
KBWS 221609Z 27015KT 11/M11 A3023 RMK A01 T01111111  RH  020%=      5-min Rain = 0
KBWS 221610Z 27014KT 11/M11 A3023 RMK A01 T01111109  RH  020%=      5-min Rain = 0
KBWS 221611Z 26012G17KT 11/M11 A3023 RMK A01 T01121106  RH  021%=      5-min Rain = 0
KBWS 221612Z 26015G21KT 12/M10 A3023 RMK A01 T01151103  RH  021%=      5-min Rain = 0
KBWS 221613Z 26014KT 12/M11 A3023 RMK A01 T01161105  RH  020%=      5-min Rain = 0
KBWS 221614Z 25015G21KT 12/M11 A3023 RMK A01 T01161106  RH  020%=      5-min Rain = 0
KBWS 221615Z 25018KT 12/M11 A3023 RMK A01 T01161108  RH  020%=      5-min Rain = 0
KBWS 221616Z 26018KT 12/M11 A3023 RMK A01 T01151109  RH  020%=      5-min Rain = 0
KBWS 221617Z 26017KT 12/M11 A3023 RMK A01 T01151107  RH  020%=      5-min Rain = 0
KBWS 221618Z 25018G24KT 12/M11 A3023 RMK A01 T01151109  RH  020%=      5-min Rain = 0
KBWS 221619Z 25020KT 12/M11 A3023 RMK A01 T01161109  RH  020%=      5-min Rain = 0
KBWS 221620Z 26015KT 12/M11 A3023 RMK A01 T01161109  RH  019%=      5-min Rain = 0
KBWS 221621Z 26017KT 12/M11 A3023 RMK A01 T01161108  RH  020%=      5-min Rain = 0
KBWS 221622Z 26017G23KT 12/M11 A3023 RMK A01 T01171109  RH  019%=      5-min Rain = 0
KBWS 221623Z 26014G19KT 12/M11 A3023 RMK A01 T01181105  RH  020%=      5-min Rain = 0
KBWS 221624Z 26016KT 12/M10 A3023 RMK A01 T01211104  RH  020%=      5-min Rain = 0
KBWS 221625Z 27016G21KT 12/M11 A3023 RMK A01 T01201108  RH  019%=      5-min Rain = 0
KBWS 221626Z 27015KT 12/M11 A3023 RMK A01 T01191107  RH  020%=      5-min Rain = 0
KBWS 221627Z 26018G23KT 12/M11 A3023 RMK A01 T01181107  RH  020%=      5-min Rain = 0
KBWS 221628Z 26017KT 12/M11 A3023 RMK A01 T01181112  RH  019%=      5-min Rain = 0
KBWS 221629Z 26015G21KT 12/M11 A3023 RMK A01 T01191108  RH  019%=      5-min Rain = 0
KBWS 221630Z 26015G21KT 12/M11 A3023 RMK A01 T01211106  RH  019%=      5-min Rain = 0
KBWS 221631Z 26017KT 12/M11 A3023 RMK A01 T01241109  RH  019%=      5-min Rain = 0
KBWS 221632Z 27016G21KT 12/M11 A3023 RMK A01 T01241109  RH  019%=      5-min Rain = 0
KBWS 221633Z 26016KT 12/M11 A3023 RMK A01 T01231113  RH  018%=      5-min Rain = 0
KBWS 221634Z 26016G22KT 12/M11 A3023 RMK A01 T01231110  RH  019%=      5-min Rain = 0
KBWS 221635Z 26016G21KT 13/M11 A3022 RMK A01 T01251110  RH  018%=      5-min Rain = 0
KBWS 221636Z 26015G20KT 13/M11 A3022 RMK A01 T01261109  RH  018%=      5-min Rain = 0
KBWS 221637Z 26014KT 13/M11 A3022 RMK A01 T01261109  RH  018%=      5-min Rain = 0
KBWS 221638Z 26013G18KT 13/M11 A3022 RMK A01 T01271108  RH  018%=      5-min Rain = 0
KBWS 221639Z 26014KT 13/M11 A3022 RMK A01 T01281106  RH  018%=      5-min Rain = 0
KBWS 221640Z 25016KT 13/M11 A3022 RMK A01 T01291108  RH  018%=      5-min Rain = 0
KBWS 221641Z 25015KT 13/M11 A3022 RMK A01 T01281112  RH  018%=      5-min Rain = 0
KBWS 221642Z 25012KT 13/M11 A3022 RMK A01 T01261112  RH  018%=      5-min Rain = 0
KBWS 221643Z 25013G19KT 13/M10 A3022 RMK A01 T01291103  RH  019%=      5-min Rain = 0
KBWS 221644Z 22016G22KT 13/M10 A3022 RMK A01 T01331096  RH  019%=      5-min Rain = 0
KBWS 221645Z 22013KT 13/M09 A3022 RMK A01 T01301093  RH  020%=      5-min Rain = 0
KBWS 221646Z 22016KT 13/M09 A3022 RMK A01 T01291090  RH  021%=      5-min Rain = 0
KBWS 221647Z 22016KT 13/M09 A3022 RMK A01 T01291094  RH  020%=      5-min Rain = 0
KBWS 221648Z 22015KT 13/M10 A3022 RMK A01 T01281096  RH  020%=      5-min Rain = 0
KBWS 221649Z 21015KT 13/M09 A3022 RMK A01 T01281094  RH  020%=      5-min Rain = 0
KBWS 221650Z 22013KT 13/M10 A3022 RMK A01 T01271097  RH  020%=      5-min Rain = 0
KBWS 221651Z 22015KT 13/M09 A3022 RMK A01 T01261094  RH  021%=      5-min Rain = 0
KBWS 221652Z 22015KT 13/M10 A3022 RMK A01 T01271095  RH  020%=      5-min Rain = 0
KBWS 221653Z 22016KT 13/M10 A3022 RMK A01 T01291095  RH  020%=      5-min Rain = 0
KBWS 221654Z 21016KT 13/M10 A3022 RMK A01 T01291099  RH  019%=      5-min Rain = 0
KBWS 221655Z 21014KT 13/M09 A3022 RMK A01 T01281092  RH  021%=      5-min Rain = 0
KBWS 221656Z 21016G21KT 13/M09 A3022 RMK A01 T01311093  RH  020%=      5-min Rain = 0
KBWS 221657Z 21018KT 13/M10 A3021 RMK A01 T01311100  RH  019%=      5-min Rain = 0
KBWS 221658Z 21018KT 13/M10 A3021 RMK A01 T01301101  RH  019%=      5-min Rain = 0
KBWS 221659Z 22017KT 13/M10 A3021 RMK A01 T01291101  RH  019%=      5-min Rain = 0
KBWS 221700Z 22017KT 13/M10 A3021 RMK A01 T01291103  RH  019%=      5-min Rain = 0
KBWS 221701Z 22016KT 13/M10 A3021 RMK A01 T01281103  RH  019%=      5-min Rain = 0
KBWS 221702Z 22016G21KT 13/M10 A3021 RMK A01 T01281099  RH  020%=      5-min Rain = 0
KBWS 221703Z 22020KT 13/M11 A3021 RMK A01 T01291105  RH  019%=      5-min Rain = 0
KBWS 221704Z 22019KT 13/M12 A3021 RMK A01 T01291117  RH  017%=      5-min Rain = 0
KBWS 221705Z 22019G25KT 13/M12 A3021 RMK A01 T01291118  RH  017%=      5-min Rain = 0
KBWS 221706Z 23018KT 13/M12 A3021 RMK A01 T01301117  RH  017%=      5-min Rain = 0
KBWS 221707Z 23017KT 13/M12 A3021 RMK A01 T01311116  RH  017%=      5-min Rain = 0
KBWS 221708Z 23016KT 13/M11 A3021 RMK A01 T01331111  RH  017%=      5-min Rain = 0
KBWS 221709Z 24018G23KT 14/M12 A3021 RMK A01 T01361117  RH  016%=      5-min Rain = 0
KBWS 221710Z 23019G25KT 14/M12 A3021 RMK A01 T01351119  RH  016%=      5-min Rain = 0
KBWS 221711Z 23022G27KT 14/M13 A302 RMK A01 T01351125  RH  015%=      5-min Rain = 0
KBWS 221712Z 23018G23KT 13/M13 A3021 RMK A01 T01331127  RH  015%=      5-min Rain = 0
KBWS 221713Z 23020KT 13/M12 A3021 RMK A01 T01331123  RH  016%=      5-min Rain = 0
KBWS 221714Z 23019G25KT 13/M12 A3021 RMK A01 T01341122  RH  016%=      5-min Rain = 0
KBWS 221715Z 23020G25KT 14/M12 A3021 RMK A01 T01351123  RH  015%=      5-min Rain = 0
KBWS 221716Z 24019G25KT 13/M13 A3021 RMK A01 T01341126  RH  015%=      5-min Rain = 0
KBWS 221717Z 22024G30KT 13/M12 A3021 RMK A01 T01331124  RH  015%=      5-min Rain = 0
KBWS 221718Z 23022G28KT 13/M13 A3021 RMK A01 T01311127  RH  015%=      5-min Rain = 0
KBWS 221719Z 23021G27KT 13/M12 A3021 RMK A01 T01321123  RH  016%=      5-min Rain = 0
KBWS 221720Z 23019G25KT 13/M12 A3021 RMK A01 T01321124  RH  016%=      5-min Rain = 0
KBWS 221721Z 23020G25KT 13/M12 A3021 RMK A01 T01321124  RH  016%=      5-min Rain = 0
KBWS 221722Z 23018G23KT 13/M12 A3021 RMK A01 T01321122  RH  016%=      5-min Rain = 0
KBWS 221723Z 23017G22KT 13/M12 A3021 RMK A01 T01341117  RH  016%=      5-min Rain = 0
KBWS 221724Z 23018G23KT 14/M12 A3021 RMK A01 T01371117  RH  016%=      5-min Rain = 0
KBWS 221725Z 23019G24KT 14/M12 A302 RMK A01 T01371119  RH  016%=      5-min Rain = 0
KBWS 221726Z 22019KT 14/M12 A302 RMK A01 T01351119  RH  016%=      5-min Rain = 0
KBWS 221727Z 23019KT 13/M12 A302 RMK A01 T01341120  RH  016%=      5-min Rain = 0
KBWS 221728Z 24019G24KT 14/M12 A302 RMK A01 T01351119  RH  016%=      5-min Rain = 0
KBWS 221729Z 23017G24KT 14/M12 A302 RMK A01 T01361119  RH  016%=      5-min Rain = 0
KBWS 221730Z 23018G26KT 14/M11 A302 RMK A01 T01371114  RH  016%=      5-min Rain = 0
KBWS 221731Z 23019G24KT 14/M11 A302 RMK A01 T01401114  RH  016%=      5-min Rain = 0
KBWS 221732Z 23019G25KT 14/M12 A302 RMK A01 T01411119  RH  015%=      5-min Rain = 0
KBWS 221733Z 23019G24KT 14/M12 A302 RMK A01 T01401121  RH  015%=      5-min Rain = 0
KBWS 221734Z 24019KT 14/M12 A302 RMK A01 T01391120  RH  015%=      5-min Rain = 0
KBWS 221735Z 23017G22KT 14/M12 A302 RMK A01 T01401121  RH  015%=      5-min Rain = 0
KBWS 221736Z 22019G26KT 14/M12 A302 RMK A01 T01421120  RH  015%=      5-min Rain = 0
KBWS 221737Z 22020G27KT 14/M13 A302 RMK A01 T01441125  RH  014%=      5-min Rain = 0
KBWS 221738Z 23021G26KT 14/M13 A3019 RMK A01 T01441131  RH  014%=      5-min Rain = 0
KBWS 221739Z 23018G23KT 14/M13 A3019 RMK A01 T01431128  RH  014%=      5-min Rain = 0
KBWS 221740Z 24019G26KT 14/M13 A3019 RMK A01 T01441127  RH  014%=      5-min Rain = 0
KBWS 221741Z 24020G27KT 15/M13 A3019 RMK A01 T01451130  RH  014%=      5-min Rain = 0
KBWS 221742Z 23016G22KT 15/M13 A3019 RMK A01 T01461128  RH  014%=      5-min Rain = 0
KBWS 221743Z 23016KT 15/M12 A3019 RMK A01 T01491123  RH  014%=      5-min Rain = 0
KBWS 221744Z 22020G26KT 15/M12 A3019 RMK A01 T01511123  RH  014%=      5-min Rain = 0
KBWS 221745Z 23021G28KT 15/M13 A3019 RMK A01 T01491129  RH  013%=      5-min Rain = 0
KBWS 221746Z 22022KT 15/M13 A3019 RMK A01 T01481130  RH  013%=      5-min Rain = 0
KBWS 221747Z 23021G27KT 15/M13 A3019 RMK A01 T01481130  RH  013%=      5-min Rain = 0
KBWS 221748Z 23019G25KT 15/M13 A3019 RMK A01 T01481132  RH  013%=      5-min Rain = 0
KBWS 221749Z 23018KT 15/M13 A3019 RMK A01 T01481128  RH  014%=      5-min Rain = 0
KBWS 221750Z 23016G24KT 15/M13 A3019 RMK A01 T01511125  RH  014%=      5-min Rain = 0
KBWS 221751Z 24023G28KT 15/M13 A3019 RMK A01 T01521128  RH  013%=      5-min Rain = 0
KBWS 221752Z 24020G25KT 15/M13 A3019 RMK A01 T01501133  RH  013%=      5-min Rain = 0
KBWS 221753Z 23019G26KT 15/M14 A3019 RMK A01 T01481136  RH  013%=      5-min Rain = 0
KBWS 221754Z 22020G25KT 15/M14 A3019 RMK A01 T01471135  RH  013%=      5-min Rain = 0
KBWS 221755Z 22022G29KT 15/M13 A3019 RMK A01 T01501133  RH  013%=      5-min Rain = 0
KBWS 221756Z 23018G24KT 15/M14 A3019 RMK A01 T01511138  RH  012%=      5-min Rain = 0
KBWS 221757Z 23018G24KT 15/M13 A3019 RMK A01 T01511133  RH  013%=      5-min Rain = 0
KBWS 221758Z 24020G26KT 15/M13 A3018 RMK A01 T01541130  RH  013%=      5-min Rain = 0
KBWS 221759Z 24018G23KT 16/M13 A3018 RMK A01 T01551131  RH  013%=      5-min Rain = 0
KBWS 221800Z 23021G26KT 16/M13 A3018 RMK A01 T01551133  RH  013%=      5-min Rain = 0
KBWS 221801Z 22020KT 16/M13 A3018 RMK A01 T01551132  RH  013%=      5-min Rain = 0
KBWS 221802Z 22018KT 16/M14 A3018 RMK A01 T01551135  RH  012%=      5-min Rain = 0
KBWS 221803Z 23019G25KT 16/M13 A3018 RMK A01 T01551132  RH  013%=      5-min Rain = 0
KBWS 221804Z 23017KT 16/M13 A3018 RMK A01 T01571133  RH  012%=      5-min Rain = 0
KBWS 221805Z 23016G21KT 16/M14 A3018 RMK A01 T01561136  RH  012%=      5-min Rain = 0
KBWS 221806Z 24019G24KT 16/M13 A3018 RMK A01 T01571130  RH  013%=      5-min Rain = 0
KBWS 221807Z 23017G22KT 16/M13 A3018 RMK A01 T01601131  RH  012%=      5-min Rain = 0
KBWS 221808Z 23016G21KT 16/M14 A3018 RMK A01 T01601135  RH  012%=      5-min Rain = 0
KBWS 221809Z 23017KT 16/M13 A3018 RMK A01 T01601132  RH  012%=      5-min Rain = 0
KBWS 221810Z 23017KT 16/M13 A3018 RMK A01 T01601131  RH  012%=      5-min Rain = 0
KBWS 221811Z 22018G23KT 16/M13 A3018 RMK A01 T01611127  RH  013%=      5-min Rain = 0
KBWS 221812Z 22019KT 16/M13 A3018 RMK A01 T01631128  RH  012%=      5-min Rain = 0
KBWS 221813Z 22019G24KT 16/M13 A3017 RMK A01 T01621131  RH  012%=      5-min Rain = 0
KBWS 221814Z 21019KT 16/M13 A3017 RMK A01 T01591130  RH  012%=      5-min Rain = 0
KBWS 221815Z 22020G31KT 16/M13 A3017 RMK A01 T01601129  RH  013%=      5-min Rain = 0
KBWS 221816Z 22018G24KT 16/M13 A3017 RMK A01 T01621127  RH  013%=      5-min Rain = 0
KBWS 221817Z 23017G24KT 16/M13 A3017 RMK A01 T01631130  RH  012%=      5-min Rain = 0
KBWS 221818Z 22017G23KT 16/M13 A3017 RMK A01 T01611132  RH  012%=      5-min Rain = 0
KBWS 221819Z 22021G26KT 16/M13 A3017 RMK A01 T01601132  RH  012%=      5-min Rain = 0
KBWS 221820Z 22022KT 16/M14 A3017 RMK A01 T01591137  RH  012%=      5-min Rain = 0
KBWS 221821Z 23017G22KT 16/M13 A3017 RMK A01 T01581134  RH  012%=      5-min Rain = 0
KBWS 221822Z 24017G22KT 16/M13 A3017 RMK A01 T01601132  RH  012%=      5-min Rain = 0
KBWS 221823Z 23015KT 16/M13 A3017 RMK A01 T01611131  RH  012%=      5-min Rain = 0
KBWS 221824Z 23020G26KT 16/M13 A3016 RMK A01 T01631130  RH  012%=      5-min Rain = 0
KBWS 221825Z 24020G25KT 16/M14 A3016 RMK A01 T01631138  RH  011%=      5-min Rain = 0
KBWS 221826Z 22019G25KT 16/M14 A3017 RMK A01 T01611137  RH  012%=      5-min Rain = 0
KBWS 221827Z 22020KT 16/M14 A3017 RMK A01 T01601141  RH  011%=      5-min Rain = 0
KBWS 221828Z 22020KT 16/M14 A3017 RMK A01 T01591140  RH  011%=      5-min Rain = 0
KBWS 221829Z 23020G26KT 16/M14 A3016 RMK A01 T01621137  RH  012%=      5-min Rain = 0
KBWS 221830Z 23020KT 16/M14 A3016 RMK A01 T01641138  RH  011%=      5-min Rain = 0
KBWS 221831Z 22017KT 16/M14 A3017 RMK A01 T01631139  RH  011%=      5-min Rain = 0
KBWS 221832Z 23019KT 16/M14 A3016 RMK A01 T01621137  RH  012%=      5-min Rain = 0
KBWS 221833Z 23017KT 16/M14 A3016 RMK A01 T01631139  RH  011%=      5-min Rain = 0
KBWS 221834Z 22016G26KT 16/M14 A3016 RMK A01 T01621139  RH  011%=      5-min Rain = 0
KBWS 221835Z 22022KT 16/M13 A3016 RMK A01 T01641134  RH  012%=      5-min Rain = 0
KBWS 221836Z 23018G24KT 17/M14 A3016 RMK A01 T01651141  RH  011%=      5-min Rain = 0
KBWS 221837Z 22014KT 16/M14 A3016 RMK A01 T01631140  RH  011%=      5-min Rain = 0
KBWS 221838Z 22019G26KT 17/M13 A3016 RMK A01 T01651131  RH  012%=      5-min Rain = 0
KBWS 221839Z 22021KT 17/M14 A3016 RMK A01 T01681136  RH  011%=      5-min Rain = 0
KBWS 221840Z 23019KT 17/M14 A3016 RMK A01 T01651141  RH  011%=      5-min Rain = 0
KBWS 221841Z 24019KT 17/M14 A3016 RMK A01 T01651137  RH  011%=      5-min Rain = 0
KBWS 221842Z 23017G23KT 17/M14 A3016 RMK A01 T01661138  RH  011%=      5-min Rain = 0
KBWS 221843Z 23020KT 17/M14 A3016 RMK A01 T01661139  RH  011%=      5-min Rain = 0
KBWS 221844Z 22021KT 17/M14 A3016 RMK A01 T01671139  RH  011%=      5-min Rain = 0
KBWS 221845Z 22019KT 17/M14 A3015 RMK A01 T01671140  RH  011%=      5-min Rain = 0
KBWS 221846Z 22017G23KT 17/M14 A3016 RMK A01 T01661137  RH  011%=      5-min Rain = 0
KBWS 221847Z 23022G28KT 17/M14 A3015 RMK A01 T01671142  RH  011%=      5-min Rain = 0
KBWS 221848Z 24018KT 17/M14 A3015 RMK A01 T01681135  RH  011%=      5-min Rain = 0
KBWS 221849Z 23017KT 17/M14 A3015 RMK A01 T01711137  RH  011%=      5-min Rain = 0
KBWS 221850Z 24018KT 17/M14 A3015 RMK A01 T01701142  RH  011%=      5-min Rain = 0
KBWS 221851Z 24015KT 17/M14 A3015 RMK A01 T01681139  RH  011%=      5-min Rain = 0
KBWS 221852Z 24014G19KT 17/M13 A3015 RMK A01 T01701132  RH  011%=      5-min Rain = 0
KBWS 221853Z 23017G26KT 17/M13 A3015 RMK A01 T01731133  RH  011%=      5-min Rain = 0
KBWS 221854Z 24021KT 17/M14 A3015 RMK A01 T01731137  RH  011%=      5-min Rain = 0
KBWS 221855Z 22018G24KT 17/M14 A3015 RMK A01 T01721137  RH  011%=      5-min Rain = 0
KBWS 221856Z 23020G26KT 17/M14 A3015 RMK A01 T01711137  RH  011%=      5-min Rain = 0
KBWS 221857Z 24015G20KT 17/M14 A3015 RMK A01 T01701139  RH  011%=      5-min Rain = 0
KBWS 221858Z 23014G19KT 17/M14 A3015 RMK A01 T01701137  RH  011%=      5-min Rain = 0
KBWS 221859Z 24016KT 17/M13 A3015 RMK A01 T01721130  RH  011%=      5-min Rain = 0
KBWS 221900Z 23016G23KT 18/M13 A3015 RMK A01 T01751130  RH  011%=      5-min Rain = 0
KBWS 221901Z 22015KT 18/M13 A3015 RMK A01 T01761134  RH  011%=      5-min Rain = 0
KBWS 221902Z 23020KT 17/M14 A3015 RMK A01 T01741138  RH  011%=      5-min Rain = 0
KBWS 221903Z 23018KT 17/M14 A3015 RMK A01 T01711140  RH  011%=      5-min Rain = 0
KBWS 221904Z 23017G24KT 17/M14 A3014 RMK A01 T01711136  RH  011%=      5-min Rain = 0
KBWS 221905Z 23018G26KT 17/M13 A3014 RMK A01 T01731134  RH  011%=      5-min Rain = 0
KBWS 221906Z 23017KT 17/M14 A3014 RMK A01 T01731138  RH  011%=      5-min Rain = 0
KBWS 221907Z 25014G19KT 17/M14 A3014 RMK A01 T01721136  RH  011%=      5-min Rain = 0
KBWS 221908Z 25016G22KT 17/M13 A3014 RMK A01 T01741130  RH  011%=      5-min Rain = 0
KBWS 221909Z 24019KT 18/M13 A3014 RMK A01 T01761132  RH  011%=      5-min Rain = 0
KBWS 221910Z 23017G23KT 18/M13 A3014 RMK A01 T01761134  RH  011%=      5-min Rain = 0
KBWS 221911Z 23019G25KT 18/M13 A3014 RMK A01 T01761134  RH  011%=      5-min Rain = 0
KBWS 221912Z 23020G25KT 18/M14 A3014 RMK A01 T01761136  RH  011%=      5-min Rain = 0
KBWS 221913Z 25017G22KT 18/M14 A3014 RMK A01 T01751136  RH  011%=      5-min Rain = 0
KBWS 221914Z 25014G19KT 17/M13 A3014 RMK A01 T01741133  RH  011%=      5-min Rain = 0
KBWS 221915Z 24019G25KT 18/M13 A3014 RMK A01 T01761132  RH  011%=      5-min Rain = 0
KBWS 221916Z 25013KT 18/M13 A3014 RMK A01 T01761134  RH  011%=      5-min Rain = 0
KBWS 221917Z 24016G23KT 18/M13 A3014 RMK A01 T01761133  RH  011%=      5-min Rain = 0
KBWS 221918Z 23016G21KT 18/M14 A3014 RMK A01 T01761135  RH  011%=      5-min Rain = 0
KBWS 221919Z 23018KT 17/M14 A3013 RMK A01 T01741140  RH  010%=      5-min Rain = 0
KBWS 221920Z 23017KT 17/M13 A3013 RMK A01 T01741134  RH  011%=      5-min Rain = 0
KBWS 221921Z 24014KT 18/M13 A3013 RMK A01 T01761133  RH  011%=      5-min Rain = 0
KBWS 221922Z 24012G17KT 18/M13 A3013 RMK A01 T01771129  RH  011%=      5-min Rain = 0
KBWS 221923Z 26014G19KT 18/M12 A3013 RMK A01 T01811124  RH  011%=      5-min Rain = 0
KBWS 221924Z 26013KT 18/M13 A3013 RMK A01 T01831127  RH  011%=      5-min Rain = 0
KBWS 221925Z 25017G24KT 18/M12 A3013 RMK A01 T01821123  RH  011%=      5-min Rain = 0
KBWS 221926Z 24020KT 18/M13 A3013 RMK A01 T01831134  RH  010%=      5-min Rain = 0
KBWS 221927Z 24016KT 18/M13 A3013 RMK A01 T01811131  RH  011%=      5-min Rain = 0
KBWS 221928Z 25017KT 19/M13 A3013 RMK A01 T01851127  RH  011%=      5-min Rain = 0
KBWS 221929Z 25018G23KT 19/M13 A3013 RMK A01 T01851131  RH  010%=      5-min Rain = 0
KBWS 221930Z 25021G26KT 18/M13 A3012 RMK A01 T01841131  RH  011%=      5-min Rain = 0
KBWS 221931Z 25017G22KT 18/M14 A3012 RMK A01 T01831136  RH  010%=      5-min Rain = 0
KBWS 221932Z 25018G24KT 18/M14 A3012 RMK A01 T01821135  RH  010%=      5-min Rain = 0
KBWS 221933Z 25019G24KT 18/M13 A3012 RMK A01 T01811134  RH  011%=      5-min Rain = 0
KBWS 221934Z 25016G22KT 18/M13 A3012 RMK A01 T01831130  RH  011%=      5-min Rain = 0
KBWS 221935Z 26017G22KT 18/M13 A3012 RMK A01 T01841131  RH  011%=      5-min Rain = 0
KBWS 221936Z 25017KT 18/M13 A3012 RMK A01 T01841130  RH  011%=      5-min Rain = 0
KBWS 221937Z 25015KT 19/M13 A3012 RMK A01 T01861128  RH  011%=      5-min Rain = 0
KBWS 221938Z 23018KT 19/M13 A3012 RMK A01 T01861129  RH  011%=      5-min Rain = 0
KBWS 221939Z 23020G26KT 19/M13 A3012 RMK A01 T01851131  RH  011%=      5-min Rain = 0
KBWS 221940Z 23018KT 18/M14 A3012 RMK A01 T01831138  RH  010%=      5-min Rain = 0
KBWS 221941Z 23017G22KT 18/M13 A3012 RMK A01 T01821134  RH  010%=      5-min Rain = 0
KBWS 221942Z 23018G23KT 18/M13 A3012 RMK A01 T01831130  RH  011%=      5-min Rain = 0
KBWS 221943Z 23022G30KT 19/M13 A3011 RMK A01 T01871128  RH  011%=      5-min Rain = 0
KBWS 221944Z 24020KT 19/M13 A3011 RMK A01 T01871132  RH  010%=      5-min Rain = 0
KBWS 221945Z 25019G24KT 19/M13 A3011 RMK A01 T01861131  RH  010%=      5-min Rain = 0
KBWS 221946Z 25019G24KT 19/M13 A3011 RMK A01 T01881130  RH  010%=      5-min Rain = 0
KBWS 221947Z 25015G21KT 19/M13 A3011 RMK A01 T01871133  RH  010%=      5-min Rain = 0
KBWS 221948Z 26020G26KT 19/M13 A3011 RMK A01 T01871127  RH  011%=      5-min Rain = 0
KBWS 221949Z 24018G24KT 19/M13 A3011 RMK A01 T01881131  RH  010%=      5-min Rain = 0
KBWS 221950Z 25014KT 19/M13 A3011 RMK A01 T01871130  RH  010%=      5-min Rain = 0
KBWS 221951Z 25012KT 19/M13 A3011 RMK A01 T01881131  RH  010%=      5-min Rain = 0
KBWS 221952Z 23016G22KT 19/M13 A3011 RMK A01 T01871130  RH  010%=      5-min Rain = 0
KBWS 221953Z 24017KT 19/M13 A301 RMK A01 T01891129  RH  010%=      5-min Rain = 0
KBWS 221954Z 23019G25KT 19/M13 A301 RMK A01 T01881133  RH  010%=      5-min Rain = 0
KBWS 221955Z 23020G28KT 19/M13 A301 RMK A01 T01871132  RH  010%=      5-min Rain = 0
KBWS 221956Z 23022G31KT 19/M13 A301 RMK A01 T01881131  RH  010%=      5-min Rain = 0
KBWS 221957Z 25022G27KT 19/M13 A301 RMK A01 T01901131  RH  010%=      5-min Rain = 0
KBWS 221958Z 24018G24KT 19/M13 A301 RMK A01 T01891133  RH  010%=      5-min Rain = 0
KBWS 221959Z 23017KT 19/M13 A301 RMK A01 T01881133  RH  010%=      5-min Rain = 0
KBWS 222000Z 25017KT 19/M13 A301 RMK A01 T01881131  RH  010%=      5-min Rain = 0
KBWS 222001Z 25017G22KT 19/M13 A301 RMK A01 T01891129  RH  010%=      5-min Rain = 0
KBWS 222002Z 24019KT 19/M13 A301 RMK A01 T01911126  RH  010%=      5-min Rain = 0
KBWS 222003Z 23019KT 19/M13 A301 RMK A01 T01931125  RH  010%=      5-min Rain = 0
KBWS 222004Z 23016G21KT 19/M13 A301 RMK A01 T01931127  RH  010%=      5-min Rain = 0
KBWS 222005Z 23016G21KT 19/M13 A301 RMK A01 T01921127  RH  010%=      5-min Rain = 0
KBWS 222006Z 24016G21KT 19/M13 A301 RMK A01 T01911131  RH  010%=      5-min Rain = 0
KBWS 222007Z 25016KT 19/M13 A301 RMK A01 T01901130  RH  010%=      5-min Rain = 0
KBWS 222008Z 23018G24KT 19/M13 A301 RMK A01 T01901126  RH  011%=      5-min Rain = 0
KBWS 222009Z 23018G23KT 19/M13 A301 RMK A01 T01921129  RH  010%=      5-min Rain = 0
KBWS 222010Z 24015KT 19/M13 A301 RMK A01 T01911131  RH  010%=      5-min Rain = 0
KBWS 222011Z 23017G26KT 19/M13 A3009 RMK A01 T01911128  RH  010%=      5-min Rain = 0
KBWS 222012Z 23020G25KT 19/M13 A3009 RMK A01 T01931127  RH  010%=      5-min Rain = 0
KBWS 222013Z 24015G21KT 19/M13 A3009 RMK A01 T01941130  RH  010%=      5-min Rain = 0
KBWS 222014Z 23018G26KT 19/M13 A3009 RMK A01 T01941125  RH  010%=      5-min Rain = 0
KBWS 222015Z 25020G25KT 20/M13 A3009 RMK A01 T01961128  RH  010%=      5-min Rain = 0
KBWS 222016Z 24019KT 20/M13 A3009 RMK A01 T01961129  RH  010%=      5-min Rain = 0
KBWS 222017Z 23015G22KT 20/M13 A3009 RMK A01 T01961130  RH  010%=      5-min Rain = 0
KBWS 222018Z 25013G18KT 19/M14 A3009 RMK A01 T01931135  RH  010%=      5-min Rain = 0
KBWS 222019Z 24014G19KT 19/M13 A3009 RMK A01 T01921130  RH  010%=      5-min Rain = 0
KBWS 222020Z 23016KT 19/M13 A3009 RMK A01 T01941125  RH  010%=      5-min Rain = 0
KBWS 222021Z 24013KT 20/M13 A3009 RMK A01 T01951130  RH  010%=      5-min Rain = 0
KBWS 222022Z 24015KT 19/M13 A3009 RMK A01 T01941128  RH  010%=      5-min Rain = 0
KBWS 222023Z 24017G23KT 20/M12 A3009 RMK A01 T01961123  RH  010%=      5-min Rain = 0
KBWS 222024Z 23020KT 20/M13 A3009 RMK A01 T01971130  RH  010%=      5-min Rain = 0
KBWS 222025Z 23016KT 20/M13 A3009 RMK A01 T01961128  RH  010%=      5-min Rain = 0
KBWS 222026Z 23017G22KT 20/M13 A3008 RMK A01 T01961128  RH  010%=      5-min Rain = 0
KBWS 222027Z 24019G24KT 20/M13 A3008 RMK A01 T01971127  RH  010%=      5-min Rain = 0
KBWS 222028Z 23018G23KT 20/M13 A3008 RMK A01 T01971129  RH  010%=      5-min Rain = 0
KBWS 222029Z 23015KT 20/M12 A3008 RMK A01 T01971124  RH  010%=      5-min Rain = 0
KBWS 222030Z 25016KT 20/M12 A3008 RMK A01 T01991122  RH  010%=      5-min Rain = 0
KBWS 222031Z 23017KT 20/M12 A3008 RMK A01 T02001122  RH  010%=      5-min Rain = 0
KBWS 222032Z 24018G23KT 20/M12 A3008 RMK A01 T02011124  RH  010%=      5-min Rain = 0
KBWS 222033Z 23016G21KT 20/M13 A3008 RMK A01 T02001125  RH  010%=      5-min Rain = 0
KBWS 222034Z 23017G22KT 20/M12 A3008 RMK A01 T01991123  RH  010%=      5-min Rain = 0
KBWS 222035Z 24014KT 20/M13 A3008 RMK A01 T01991128  RH  010%=      5-min Rain = 0
KBWS 222036Z 24016G22KT 20/M13 A3008 RMK A01 T01971126  RH  010%=      5-min Rain = 0
KBWS 222037Z 25016KT 20/M13 A3008 RMK A01 T01971125  RH  010%=      5-min Rain = 0
KBWS 222038Z 25016KT 20/M13 A3008 RMK A01 T01981126  RH  010%=      5-min Rain = 0
KBWS 222039Z 24016G23KT 20/M13 A3008 RMK A01 T01981126  RH  010%=      5-min Rain = 0
KBWS 222040Z 24022G27KT 20/M13 A3008 RMK A01 T01971130  RH  010%=      5-min Rain = 0
KBWS 222041Z 25021G27KT 20/M13 A3008 RMK A01 T01961131  RH  010%=      5-min Rain = 0
KBWS 222042Z 25017KT 20/M13 A3008 RMK A01 T01961129  RH  010%=      5-min Rain = 0
KBWS 222043Z 25016G21KT 20/M13 A3008 RMK A01 T01971128  RH  010%=      5-min Rain = 0
KBWS 222044Z 24014G19KT 20/M13 A3008 RMK A01 T01971128  RH  010%=      5-min Rain = 0
KBWS 222045Z 24015G20KT 20/M12 A3008 RMK A01 T01981124  RH  010%=      5-min Rain = 0
KBWS 222046Z 24017G24KT 20/M12 A3008 RMK A01 T02011123  RH  010%=      5-min Rain = 0
KBWS 222047Z 23015G22KT 20/M13 A3008 RMK A01 T02011125  RH  010%=      5-min Rain = 0
KBWS 222048Z 24018G23KT 20/M12 A3008 RMK A01 T02011123  RH  010%=      5-min Rain = 0
KBWS 222049Z 24020G25KT 20/M13 A3008 RMK A01 T02021126  RH  010%=      5-min Rain = 0
KBWS 222050Z 25019G27KT 20/M13 A3008 RMK A01 T02011128  RH  010%=      5-min Rain = 0
KBWS 222051Z 25017KT 20/M13 A3008 RMK A01 T02001128  RH  010%=      5-min Rain = 0
KBWS 222052Z 25014G21KT 20/M13 A3008 RMK A01 T02001128  RH  010%=      5-min Rain = 0
KBWS 222053Z 25015KT 20/M13 A3008 RMK A01 T01991127  RH  010%=      5-min Rain = 0
KBWS 222054Z 25015KT 20/M13 A3008 RMK A01 T02001125  RH  010%=      5-min Rain = 0
KBWS 222055Z 24014G19KT 20/M13 A3008 RMK A01 T02011126  RH  010%=      5-min Rain = 0
KBWS 222056Z 23012KT 20/M13 A3008 RMK A01 T02001129  RH  010%=      5-min Rain = 0
KBWS 222057Z 24014G22KT 20/M13 A3007 RMK A01 T02001126  RH  010%=      5-min Rain = 0
KBWS 222058Z 24020G26KT 20/M12 A3007 RMK A01 T02031123  RH  010%=      5-min Rain = 0
KBWS 222059Z 25022G27KT 20/M13 A3007 RMK A01 T02041130  RH  009%=      5-min Rain = 0
KBWS 222100Z 25021KT 20/M13 A3007 RMK A01 T02021133  RH  009%=      5-min Rain = 0
KBWS 222101Z 25018G24KT 20/M13 A3007 RMK A01 T02011132  RH  009%=      5-min Rain = 0
KBWS 222102Z 26015G20KT 20/M13 A3007 RMK A01 T02011129  RH  010%=      5-min Rain = 0
KBWS 222103Z 25017KT 20/M13 A3007 RMK A01 T02031126  RH  010%=      5-min Rain = 0
KBWS 222104Z 24016KT 21/M13 A3008 RMK A01 T02051128  RH  009%=      5-min Rain = 0
KBWS 222105Z 26014KT 21/M13 A3008 RMK A01 T02051128  RH  010%=      5-min Rain = 0
KBWS 222106Z 26013KT 20/M13 A3008 RMK A01 T02041129  RH  010%=      5-min Rain = 0
KBWS 222107Z 26013G21KT 20/M13 A3008 RMK A01 T02021131  RH  009%=      5-min Rain = 0
KBWS 222108Z 25017KT 20/M13 A3007 RMK A01 T02031127  RH  010%=      5-min Rain = 0
KBWS 222109Z 24015KT 21/M12 A3007 RMK A01 T02051121  RH  010%=      5-min Rain = 0
KBWS 222110Z 24018KT 21/M12 A3007 RMK A01 T02081122  RH  010%=      5-min Rain = 0
KBWS 222111Z 24017KT 21/M13 A3007 RMK A01 T02081130  RH  009%=      5-min Rain = 0
KBWS 222112Z 23014G20KT 21/M13 A3007 RMK A01 T02061126  RH  010%=      5-min Rain = 0
KBWS 222113Z 25018G24KT 21/M12 A3007 RMK A01 T02071123  RH  010%=      5-min Rain = 0
KBWS 222114Z 26019G25KT 21/M12 A3007 RMK A01 T02091124  RH  010%=      5-min Rain = 0
KBWS 222115Z 27021G27KT 21/M13 A3008 RMK A01 T02081126  RH  009%=      5-min Rain = 0
KBWS 222116Z 28018G23KT 21/M13 A3008 RMK A01 T02051125  RH  010%=      5-min Rain = 0
KBWS 222117Z 28015KT 20/M12 A3008 RMK A01 T02041122  RH  010%=      5-min Rain = 0
KBWS 222118Z 28018G24KT 20/M13 A3008 RMK A01 T02041125  RH  010%=      5-min Rain = 0
KBWS 222119Z 25017KT 20/M12 A3008 RMK A01 T02041124  RH  010%=      5-min Rain = 0
KBWS 222120Z 25014G21KT 21/M13 A3008 RMK A01 T02051129  RH  009%=      5-min Rain = 0
KBWS 222121Z 24018G23KT 20/M13 A3008 RMK A01 T02041126  RH  010%=      5-min Rain = 0
KBWS 222122Z 25015KT 21/M13 A3008 RMK A01 T02051128  RH  010%=      5-min Rain = 0
KBWS 222123Z 25014KT 21/M13 A3008 RMK A01 T02051126  RH  010%=      5-min Rain = 0
KBWS 222124Z 24018G23KT 21/M12 A3007 RMK A01 T02071121  RH  010%=      5-min Rain = 0
KBWS 222125Z 24018G23KT 21/M13 A3007 RMK A01 T02071128  RH  009%=      5-min Rain = 0
KBWS 222126Z 24017G22KT 21/M13 A3007 RMK A01 T02061128  RH  009%=      5-min Rain = 0
KBWS 222127Z 25015KT 21/M13 A3007 RMK A01 T02051128  RH  010%=      5-min Rain = 0
KBWS 222128Z 25017KT 21/M13 A3007 RMK A01 T02061125  RH  010%=      5-min Rain = 0
KBWS 222129Z 26016G22KT 21/M12 A3007 RMK A01 T02081122  RH  010%=      5-min Rain = 0
KBWS 222130Z 26013KT 21/M12 A3008 RMK A01 T02091122  RH  010%=      5-min Rain = 0
KBWS 222131Z 25014G20KT 21/M12 A3008 RMK A01 T02091120  RH  010%=      5-min Rain = 0
KBWS 222132Z 25013G18KT 21/M12 A3008 RMK A01 T02101119  RH  010%=      5-min Rain = 0
KBWS 222133Z 24016KT 21/M12 A3007 RMK A01 T02111119  RH  010%=      5-min Rain = 0
KBWS 222134Z 25014G19KT 21/M12 A3008 RMK A01 T02111122  RH  010%=      5-min Rain = 0
KBWS 222135Z 25013KT 21/M12 A3007 RMK A01 T02111122  RH  010%=      5-min Rain = 0
KBWS 222136Z 27012KT 21/M12 A3008 RMK A01 T02111119  RH  010%=      5-min Rain = 0
KBWS 222137Z 27014G23KT 21/M12 A3007 RMK A01 T02101120  RH  010%=      5-min Rain = 0
KBWS 222138Z 26016G23KT 21/M12 A3007 RMK A01 T02081124  RH  010%=      5-min Rain = 0
KBWS 222139Z 25015G20KT 21/M12 A3007 RMK A01 T02081122  RH  010%=      5-min Rain = 0
KBWS 222140Z 25014KT 21/M12 A3007 RMK A01 T02081123  RH  010%=      5-min Rain = 0
KBWS 222141Z 25012KT 21/M12 A3007 RMK A01 T02091123  RH  010%=      5-min Rain = 0
KBWS 222142Z 25013KT 21/M12 A3007 RMK A01 T02101117  RH  010%=      5-min Rain = 0
KBWS 222143Z 25012G19KT 21/M12 A3007 RMK A01 T02121117  RH  010%=      5-min Rain = 0
KBWS 222144Z 26017KT 21/M12 A3007 RMK A01 T02141115  RH  010%=      5-min Rain = 0
KBWS 222145Z 28016G22KT 21/M12 A3007 RMK A01 T02141120  RH  010%=      5-min Rain = 0
KBWS 222146Z 27012KT 21/M12 A3007 RMK A01 T02111120  RH  010%=      5-min Rain = 0
KBWS 222147Z 27015G20KT 21/M12 A3007 RMK A01 T02101119  RH  010%=      5-min Rain = 0
KBWS 222148Z 26018KT 21/M12 A3007 RMK A01 T02101122  RH  010%=      5-min Rain = 0
KBWS 222149Z 27015KT 21/M12 A3007 RMK A01 T02091124  RH  010%=      5-min Rain = 0
KBWS 222150Z 26014G20KT 21/M12 A3007 RMK A01 T02081122  RH  010%=      5-min Rain = 0
KBWS 222151Z 26018G25KT 21/M12 A3007 RMK A01 T02081120  RH  010%=      5-min Rain = 0
KBWS 222152Z 26017G23KT 21/M12 A3007 RMK A01 T02091121  RH  010%=      5-min Rain = 0
KBWS 222153Z 26019KT 21/M12 A3007 RMK A01 T02091122  RH  010%=      5-min Rain = 0
KBWS 222154Z 27016G23KT 21/M13 A3007 RMK A01 T02081128  RH  009%=      5-min Rain = 0
KBWS 222155Z 27015KT 21/M13 A3007 RMK A01 T02061128  RH  009%=      5-min Rain = 0
KBWS 222156Z 27013KT 21/M12 A3007 RMK A01 T02061124  RH  010%=      5-min Rain = 0
KBWS 222157Z 27013KT 21/M12 A3007 RMK A01 T02061122  RH  010%=      5-min Rain = 0
KBWS 222158Z 27011KT 21/M12 A3007 RMK A01 T02071118  RH  010%=      5-min Rain = 0
KBWS 222159Z 28016G24KT 21/M12 A3007 RMK A01 T02081121  RH  010%=      5-min Rain = 0
KBWS 222200Z 27015G20KT 21/M12 A3007 RMK A01 T02091118  RH  010%=      5-min Rain = 0
KBWS 222201Z 27015KT 21/M12 A3007 RMK A01 T02101124  RH  010%=      5-min Rain = 0
KBWS 222202Z 27015KT 21/M12 A3007 RMK A01 T02081123  RH  010%=      5-min Rain = 0
KBWS 222203Z 27013KT 21/M12 A3007 RMK A01 T02081123  RH  010%=      5-min Rain = 0
KBWS 222204Z 26014KT 21/M12 A3007 RMK A01 T02081119  RH  010%=      5-min Rain = 0
KBWS 222205Z 27012G18KT 21/M12 A3007 RMK A01 T02091123  RH  010%=      5-min Rain = 0
KBWS 222206Z 26012KT 21/M12 A3007 RMK A01 T02091121  RH  010%=      5-min Rain = 0
KBWS 222207Z 26012KT 21/M12 A3007 RMK A01 T02091120  RH  010%=      5-min Rain = 0
KBWS 222208Z 25016KT 21/M12 A3007 RMK A01 T02111122  RH  010%=      5-min Rain = 0
KBWS 222209Z 25015KT 21/M13 A3007 RMK A01 T02101126  RH  009%=      5-min Rain = 0
KBWS 222210Z 25018KT 21/M12 A3007 RMK A01 T02101121  RH  010%=      5-min Rain = 0
KBWS 222211Z 26017KT 21/M12 A3007 RMK A01 T02111122  RH  010%=      5-min Rain = 0
KBWS 222212Z 26015G20KT 21/M12 A3007 RMK A01 T02121121  RH  010%=      5-min Rain = 0
KBWS 222213Z 27015KT 21/M12 A3007 RMK A01 T02111124  RH  009%=      5-min Rain = 0
KBWS 222214Z 27013KT 21/M13 A3007 RMK A01 T02091125  RH  010%=      5-min Rain = 0
KBWS 222215Z 26012KT 21/M12 A3007 RMK A01 T02091120  RH  010%=      5-min Rain = 0
KBWS 222216Z 27011KT 21/M12 A3007 RMK A01 T02091120  RH  010%=      5-min Rain = 0
KBWS 222217Z 27017KT 21/M12 A3007 RMK A01 T02111117  RH  010%=      5-min Rain = 0
KBWS 222218Z 28014KT 21/M12 A3007 RMK A01 T02111120  RH  010%=      5-min Rain = 0
KBWS 222219Z 27013G18KT 21/M12 A3007 RMK A01 T02101118  RH  010%=      5-min Rain = 0
KBWS 222220Z 28014KT 21/M12 A3007 RMK A01 T02101115  RH  010%=      5-min Rain = 0
KBWS 222221Z 27011KT 21/M12 A3007 RMK A01 T02101119  RH  010%=      5-min Rain = 0
KBWS 222222Z 26013G21KT 21/M12 A3007 RMK A01 T02101118  RH  010%=      5-min Rain = 0
KBWS 222223Z 25017G22KT 21/M12 A3007 RMK A01 T02111122  RH  010%=      5-min Rain = 0
KBWS 222224Z 26017KT 21/M12 A3007 RMK A01 T02111121  RH  010%=      5-min Rain = 0
KBWS 222225Z 25016KT 21/M12 A3007 RMK A01 T02111124  RH  009%=      5-min Rain = 0
KBWS 222226Z 26017G22KT 21/M13 A3007 RMK A01 T02111125  RH  009%=      5-min Rain = 0
KBWS 222227Z 26016KT 21/M12 A3007 RMK A01 T02101124  RH  009%=      5-min Rain = 0
KBWS 222228Z 26014KT 21/M12 A3007 RMK A01 T02101123  RH  010%=      5-min Rain = 0
KBWS 222229Z 27012KT 21/M12 A3007 RMK A01 T02111119  RH  010%=      5-min Rain = 0
KBWS 222230Z 25015G20KT 21/M12 A3007 RMK A01 T02111118  RH  010%=      5-min Rain = 0
KBWS 222231Z 26016KT 21/M12 A3007 RMK A01 T02131120  RH  010%=      5-min Rain = 0
KBWS 222232Z 25016KT 21/M12 A3007 RMK A01 T02131122  RH  010%=      5-min Rain = 0
KBWS 222233Z 26017KT 21/M12 A3007 RMK A01 T02121124  RH  009%=      5-min Rain = 0
KBWS 222234Z 27017KT 21/M12 A3007 RMK A01 T02111124  RH  009%=      5-min Rain = 0
KBWS 222235Z 27015KT 21/M12 A3007 RMK A01 T02101123  RH  010%=      5-min Rain = 0
KBWS 222236Z 27012KT 21/M12 A3007 RMK A01 T02091120  RH  010%=      5-min Rain = 0
KBWS 222237Z 27014KT 21/M12 A3007 RMK A01 T02091123  RH  010%=      5-min Rain = 0
KBWS 222238Z 26012KT 21/M12 A3007 RMK A01 T02091123  RH  010%=      5-min Rain = 0
KBWS 222239Z 25015KT 21/M12 A3007 RMK A01 T02091123  RH  010%=      5-min Rain = 0
KBWS 222240Z 27011KT 21/M13 A3007 RMK A01 T02091125  RH  009%=      5-min Rain = 0
KBWS 222241Z 25012KT 21/M12 A3007 RMK A01 T02091122  RH  010%=      5-min Rain = 0
KBWS 222242Z 25013KT 21/M13 A3007 RMK A01 T02101125  RH  009%=      5-min Rain = 0
KBWS 222243Z 27012KT 21/M12 A3007 RMK A01 T02101123  RH  010%=      5-min Rain = 0
KBWS 222244Z 27012KT 21/M12 A3007 RMK A01 T02101122  RH  010%=      5-min Rain = 0
KBWS 222245Z 27013KT 21/M12 A3007 RMK A01 T02111115  RH  010%=      5-min Rain = 0
KBWS 222246Z 26014KT 21/M12 A3007 RMK A01 T02121115  RH  010%=      5-min Rain = 0
KBWS 222247Z 27016KT 21/M12 A3007 RMK A01 T02131121  RH  010%=      5-min Rain = 0
KBWS 222248Z 27013KT 21/M12 A3007 RMK A01 T02111120  RH  010%=      5-min Rain = 0
KBWS 222249Z 27013KT 21/M12 A3007 RMK A01 T02101117  RH  010%=      5-min Rain = 0
KBWS 222250Z 26014KT 21/M12 A3007 RMK A01 T02101121  RH  010%=      5-min Rain = 0
KBWS 222251Z 26012KT 21/M12 A3007 RMK A01 T02101122  RH  010%=      5-min Rain = 0
KBWS 222252Z 26009KT 21/M12 A3007 RMK A01 T02101119  RH  010%=      5-min Rain = 0
KBWS 222253Z 27011KT 21/M12 A3007 RMK A01 T02111117  RH  010%=      5-min Rain = 0
KBWS 222254Z 28012G17KT 21/M12 A3007 RMK A01 T02121116  RH  010%=      5-min Rain = 0
KBWS 222255Z 29014KT 21/M12 A3007 RMK A01 T02121118  RH  010%=      5-min Rain = 0
KBWS 222256Z 29016KT 21/M12 A3007 RMK A01 T02111119  RH  010%=      5-min Rain = 0
KBWS 222257Z 29017KT 21/M12 A3007 RMK A01 T02111119  RH  010%=      5-min Rain = 0
KBWS 222258Z 30016KT 21/M12 A3007 RMK A01 T02111122  RH  010%=      5-min Rain = 0
KBWS 222259Z 29014KT 21/M12 A3007 RMK A01 T02101122  RH  010%=      5-min Rain = 0
KBWS 222300Z 27013KT 21/M12 A3007 RMK A01 T02101116  RH  010%=      5-min Rain = 0
KBWS 222301Z 26012KT 21/M11 A3007 RMK A01 T02101114  RH  010%=      5-min Rain = 0
KBWS 222302Z 26012KT 21/M11 A3007 RMK A01 T02101114  RH  010%=      5-min Rain = 0
KBWS 222303Z 27015G22KT 21/M12 A3007 RMK A01 T02111118  RH  010%=      5-min Rain = 0
KBWS 222304Z 28015KT 21/M11 A3007 RMK A01 T02111114  RH  010%=      5-min Rain = 0
KBWS 222305Z 28014KT 21/M12 A3007 RMK A01 T02101115  RH  010%=      5-min Rain = 0
KBWS 222306Z 27013G18KT 21/M11 A3007 RMK A01 T02101113  RH  010%=      5-min Rain = 0
KBWS 222307Z 28012G17KT 21/M11 A3007 RMK A01 T02091111  RH  011%=      5-min Rain = 0
KBWS 222308Z 27015KT 21/M11 A3007 RMK A01 T02101111  RH  011%=      5-min Rain = 0
KBWS 222309Z 27014KT 21/M11 A3007 RMK A01 T02101112  RH  011%=      5-min Rain = 0
KBWS 222310Z 27011KT 21/M11 A3007 RMK A01 T02101111  RH  011%=      5-min Rain = 0
KBWS 222311Z 26012KT 21/M12 A3007 RMK A01 T02091115  RH  010%=      5-min Rain = 0
KBWS 222312Z 27014G20KT 21/M12 A3007 RMK A01 T02101115  RH  010%=      5-min Rain = 0
KBWS 222313Z 28015KT 21/M11 A3007 RMK A01 T02091113  RH  010%=      5-min Rain = 0
KBWS 222314Z 28012KT 21/M11 A3007 RMK A01 T02091108  RH  011%=      5-min Rain = 0
KBWS 222315Z 28011KT 21/M11 A3007 RMK A01 T02101106  RH  011%=      5-min Rain = 0
KBWS 222316Z 29015KT 21/M11 A3007 RMK A01 T02101107  RH  011%=      5-min Rain = 0
KBWS 222317Z 29015KT 21/M11 A3007 RMK A01 T02091111  RH  011%=      5-min Rain = 0
KBWS 222318Z 28016KT 21/M11 A3007 RMK A01 T02081114  RH  010%=      5-min Rain = 0
KBWS 222319Z 29014KT 21/M11 A3007 RMK A01 T02081114  RH  011%=      5-min Rain = 0
KBWS 222320Z 29014G19KT 21/M11 A3007 RMK A01 T02071113  RH  011%=      5-min Rain = 0
KBWS 222321Z 28015G20KT 21/M11 A3007 RMK A01 T02071114  RH  011%=      5-min Rain = 0
KBWS 222322Z 27014KT 21/M11 A3007 RMK A01 T02071110  RH  011%=      5-min Rain = 0
KBWS 222323Z 28013KT 21/M11 A3007 RMK A01 T02071107  RH  011%=      5-min Rain = 0
KBWS 222324Z 28013G18KT 21/M11 A3007 RMK A01 T02071106  RH  011%=      5-min Rain = 0
KBWS 222325Z 28014KT 21/M11 A3007 RMK A01 T02071108  RH  011%=      5-min Rain = 0
KBWS 222326Z 28014KT 21/M11 A3007 RMK A01 T02071108  RH  011%=      5-min Rain = 0
KBWS 222327Z 28013KT 21/M11 A3007 RMK A01 T02061107  RH  011%=      5-min Rain = 0
KBWS 222328Z 28013KT 21/M11 A3007 RMK A01 T02061106  RH  011%=      5-min Rain = 0
KBWS 222329Z 29012KT 21/M11 A3007 RMK A01 T02061106  RH  011%=      5-min Rain = 0
KBWS 222330Z 29014KT 21/M11 A3007 RMK A01 T02061107  RH  011%=      5-min Rain = 0
KBWS 222331Z 28015KT 21/M11 A3007 RMK A01 T02061108  RH  011%=      5-min Rain = 0
KBWS 222332Z 29015KT 21/M11 A3007 RMK A01 T02051107  RH  011%=      5-min Rain = 0
KBWS 222333Z 29013KT 21/M11 A3007 RMK A01 T02051106  RH  011%=      5-min Rain = 0
KBWS 222334Z 29012KT 21/M11 A3007 RMK A01 T02051108  RH  011%=      5-min Rain = 0
KBWS 222335Z 29013KT 21/M11 A3007 RMK A01 T02051107  RH  011%=      5-min Rain = 0
KBWS 222336Z 28012KT 21/M11 A3007 RMK A01 T02051106  RH  011%=      5-min Rain = 0
KBWS 222337Z 28016KT 21/M11 A3007 RMK A01 T02051105  RH  011%=      5-min Rain = 0
KBWS 222338Z 28015KT 21/M11 A3007 RMK A01 T02051105  RH  011%=      5-min Rain = 0
KBWS 222339Z 28015KT 20/M11 A3007 RMK A01 T02041105  RH  011%=      5-min Rain = 0
KBWS 222340Z 29015KT 20/M11 A3007 RMK A01 T02041105  RH  012%=      5-min Rain = 0
KBWS 222341Z 29015KT 20/M11 A3007 RMK A01 T02031106  RH  011%=      5-min Rain = 0
KBWS 222342Z 29014KT 20/M11 A3007 RMK A01 T02031107  RH  011%=      5-min Rain = 0
KBWS 222343Z 29014KT 20/M11 A3007 RMK A01 T02031106  RH  011%=      5-min Rain = 0
KBWS 222344Z 28012KT 20/M11 A3007 RMK A01 T02021106  RH  012%=      5-min Rain = 0
KBWS 222345Z 29012G17KT 20/M10 A3008 RMK A01 T02021104  RH  012%=      5-min Rain = 0
KBWS 222346Z 29013KT 20/M11 A3008 RMK A01 T02021105  RH  012%=      5-min Rain = 0
KBWS 222347Z 29012KT 20/M11 A3007 RMK A01 T02011106  RH  012%=      5-min Rain = 0
KBWS 222348Z 28011KT 20/M10 A3007 RMK A01 T02011104  RH  012%=      5-min Rain = 0
KBWS 222349Z 29013KT 20/M10 A3007 RMK A01 T02011104  RH  012%=      5-min Rain = 0
KBWS 222350Z 29011KT 20/M10 A3007 RMK A01 T02011103  RH  012%=      5-min Rain = 0
KBWS 222351Z 29012KT 20/M10 A3007 RMK A01 T02001103  RH  012%=      5-min Rain = 0
KBWS 222352Z 28012KT 20/M10 A3007 RMK A01 T02001102  RH  012%=      5-min Rain = 0
KBWS 222353Z 29012KT 20/M10 A3007 RMK A01 T02001103  RH  012%=      5-min Rain = 0
KBWS 222354Z 28012KT 20/M10 A3007 RMK A01 T02001103  RH  012%=      5-min Rain = 0
KBWS 222355Z 28009KT 20/M10 A3008 RMK A01 T02001101  RH  012%=      5-min Rain = 0
KBWS 222356Z 27010KT 20/M10 A3008 RMK A01 T01991098  RH  013%=      5-min Rain = 0
KBWS 222357Z 28008KT 20/M10 A3008 RMK A01 T01991097  RH  013%=      5-min Rain = 0
KBWS 222358Z 28010KT 20/M10 A3008 RMK A01 T01981097  RH  013%=      5-min Rain = 0
KBWS 222359Z 27009KT 20/M10 A3008 RMK A01 T01981099  RH  012%=      5-min Rain = 0
KBWS 230000Z 27010KT 20/M10 A3008 RMK A01 T01981100  RH  012%=      5-min Rain = 0
KBWS 230001Z 27010KT 20/M11 A3007 RMK A01 T01981105  RH  012%=      5-min Rain = 0
KBWS 230002Z 27010KT 20/M11 A3007 RMK A01 T01981107  RH  012%=      5-min Rain = 0
KBWS 230003Z 27009KT 20/M11 A3007 RMK A01 T01991105  RH  012%=      5-min Rain = 0
KBWS 230004Z 27009KT 20/M10 A3008 RMK A01 T01991103  RH  012%=      5-min Rain = 0
KBWS 230005Z 27009KT 20/M10 A3007 RMK A01 T01981102  RH  012%=      5-min Rain = 0
KBWS 230006Z 27008KT 20/M10 A3007 RMK A01 T01971099  RH  013%=      5-min Rain = 0
KBWS 230007Z 27008KT 20/M10 A3007 RMK A01 T01961098  RH  013%=      5-min Rain = 0
KBWS 230008Z 28009KT 19/M10 A3007 RMK A01 T01941097  RH  013%=      5-min Rain = 0
KBWS 230009Z 28009KT 19/M10 A3007 RMK A01 T01931097  RH  013%=      5-min Rain = 0
KBWS 230010Z 28009KT 19/M10 A3007 RMK A01 T01921095  RH  013%=      5-min Rain = 0
KBWS 230011Z 27008KT 19/M10 A3007 RMK A01 T01911095  RH  014%=      5-min Rain = 0
KBWS 230012Z 27008KT 19/M10 A3007 RMK A01 T01901096  RH  013%=      5-min Rain = 0
KBWS 230013Z 27007KT 19/M10 A3007 RMK A01 T01901097  RH  013%=      5-min Rain = 0
KBWS 230014Z 27008KT 19/M10 A3008 RMK A01 T01901098  RH  013%=      5-min Rain = 0
KBWS 230015Z 27008KT 19/M10 A3008 RMK A01 T01901099  RH  013%=      5-min Rain = 0
KBWS 230016Z 27008KT 19/M10 A3008 RMK A01 T01901099  RH  013%=      5-min Rain = 0
KBWS 230017Z 27008KT 19/M10 A3008 RMK A01 T01901100  RH  013%=      5-min Rain = 0
KBWS 230018Z 26008KT 19/M10 A3008 RMK A01 T01901102  RH  013%=      5-min Rain = 0
KBWS 230019Z 26007KT 19/M10 A3008 RMK A01 T01901101  RH  013%=      5-min Rain = 0
KBWS 230020Z 26007KT 19/M10 A3008 RMK A01 T01881100  RH  013%=      5-min Rain = 0
KBWS 230021Z 26008KT 19/M10 A3007 RMK A01 T01871100  RH  013%=      5-min Rain = 0
KBWS 230022Z 26008KT 19/M10 A3007 RMK A01 T01871100  RH  013%=      5-min Rain = 0
KBWS 230023Z 26007KT 19/M10 A3007 RMK A01 T01861099  RH  013%=      5-min Rain = 0
KBWS 230024Z 26007KT 18/M10 A3008 RMK A01 T01841098  RH  014%=      5-min Rain = 0
KBWS 230025Z 26007KT 18/M10 A3008 RMK A01 T01821098  RH  014%=      5-min Rain = 0
KBWS 230026Z 25006KT 18/M10 A3008 RMK A01 T01801099  RH  014%=      5-min Rain = 0
KBWS 230027Z 26007KT 18/M10 A3008 RMK A01 T01781098  RH  014%=      5-min Rain = 0
KBWS 230028Z 26007KT 18/M10 A3008 RMK A01 T01771099  RH  014%=      5-min Rain = 0
KBWS 230029Z 26007KT 18/M10 A3008 RMK A01 T01761099  RH  014%=      5-min Rain = 0
KBWS 230030Z 26007KT 18/M10 A3008 RMK A01 T01751099  RH  015%=      5-min Rain = 0
KBWS 230031Z 25007KT 17/M10 A3008 RMK A01 T01731098  RH  015%=      5-min Rain = 0
KBWS 230032Z 25007KT 17/M10 A3008 RMK A01 T01711097  RH  015%=      5-min Rain = 0
KBWS 230033Z 25008KT 17/M10 A3008 RMK A01 T01701098  RH  015%=      5-min Rain = 0
KBWS 230034Z 25007KT 17/M10 A3008 RMK A01 T01691097  RH  015%=      5-min Rain = 0
KBWS 230035Z 25008KT 17/M10 A3008 RMK A01 T01681097  RH  015%=      5-min Rain = 0
KBWS 230036Z 25007KT 17/M10 A3008 RMK A01 T01671097  RH  015%=      5-min Rain = 0
KBWS 230037Z 25007KT 17/M10 A3008 RMK A01 T01661097  RH  016%=      5-min Rain = 0
KBWS 230038Z 25007KT 17/M10 A3008 RMK A01 T01651097  RH  016%=      5-min Rain = 0
KBWS 230039Z 25007KT 16/M10 A3008 RMK A01 T01631097  RH  016%=      5-min Rain = 0
KBWS 230040Z 25007KT 16/M10 A3007 RMK A01 T01621097  RH  016%=      5-min Rain = 0
KBWS 230041Z 25007KT 16/M10 A3007 RMK A01 T01611097  RH  016%=      5-min Rain = 0
KBWS 230042Z 25007KT 16/M10 A3007 RMK A01 T01601097  RH  016%=      5-min Rain = 0
KBWS 230043Z 25007KT 16/M10 A3007 RMK A01 T01591098  RH  016%=      5-min Rain = 0
KBWS 230044Z 25007KT 16/M10 A3008 RMK A01 T01581098  RH  016%=      5-min Rain = 0
KBWS 230045Z 25007KT 16/M10 A3008 RMK A01 T01571098  RH  016%=      5-min Rain = 0
KBWS 230046Z 24007KT 16/M10 A3008 RMK A01 T01551098  RH  017%=      5-min Rain = 0
KBWS 230047Z 24007KT 15/M10 A3008 RMK A01 T01541097  RH  017%=      5-min Rain = 0
KBWS 230048Z 24008KT 15/M10 A3008 RMK A01 T01531097  RH  017%=      5-min Rain = 0
KBWS 230049Z 25008KT 15/M10 A3008 RMK A01 T01521097  RH  017%=      5-min Rain = 0
KBWS 230050Z 25008KT 15/M10 A3008 RMK A01 T01511097  RH  017%=      5-min Rain = 0
KBWS 230051Z 24008KT 15/M10 A3008 RMK A01 T01501096  RH  017%=      5-min Rain = 0
KBWS 230052Z 25008KT 15/M10 A3008 RMK A01 T01491096  RH  017%=      5-min Rain = 0
KBWS 230053Z 24007KT 15/M10 A3008 RMK A01 T01481096  RH  018%=      5-min Rain = 0
KBWS 230054Z 24007KT 15/M10 A3008 RMK A01 T01461096  RH  018%=      5-min Rain = 0
KBWS 230055Z 24007KT 15/M10 A3008 RMK A01 T01451095  RH  018%=      5-min Rain = 0
KBWS 230056Z 24007KT 14/M10 A3008 RMK A01 T01441095  RH  018%=      5-min Rain = 0
KBWS 230057Z 24007KT 14/M10 A3008 RMK A01 T01441095  RH  018%=      5-min Rain = 0
KBWS 230058Z 24007KT 14/M09 A3008 RMK A01 T01441094  RH  018%=      5-min Rain = 0
KBWS 230059Z 24007KT 14/M09 A3008 RMK A01 T01441094  RH  018%=      5-min Rain = 0
KBWS 230100Z 24007KT 14/M10 A3008 RMK A01 T01441095  RH  018%=      5-min Rain = 0
KBWS 230101Z 24007KT 15/M10 A3008 RMK A01 T01451096  RH  018%=      5-min Rain = 0
KBWS 230102Z 25008KT 15/M10 A3008 RMK A01 T01451097  RH  018%=      5-min Rain = 0
KBWS 230103Z 25008KT 15/M10 A3008 RMK A01 T01451097  RH  018%=      5-min Rain = 0
KBWS 230104Z 24008KT 15/M10 A3008 RMK A01 T01451097  RH  018%=      5-min Rain = 0
KBWS 230105Z 24007KT 14/M10 A3008 RMK A01 T01441097  RH  018%=      5-min Rain = 0
KBWS 230106Z 24007KT 14/M10 A3008 RMK A01 T01431098  RH  018%=      5-min Rain = 0
KBWS 230107Z 24007KT 14/M10 A3008 RMK A01 T01421097  RH  018%=      5-min Rain = 0
KBWS 230108Z 24007KT 14/M10 A3008 RMK A01 T01411097  RH  018%=      5-min Rain = 0
KBWS 230109Z 24007KT 14/M10 A3008 RMK A01 T01401098  RH  018%=      5-min Rain = 0
KBWS 230110Z 24007KT 14/M10 A3008 RMK A01 T01401098  RH  018%=      5-min Rain = 0
KBWS 230111Z 24007KT 14/M10 A3008 RMK A01 T01401098  RH  018%=      5-min Rain = 0
KBWS 230112Z 24007KT 14/M10 A3008 RMK A01 T01411097  RH  018%=      5-min Rain = 0
KBWS 230113Z 24007KT 14/M10 A3008 RMK A01 T01411097  RH  018%=      5-min Rain = 0
KBWS 230114Z 24007KT 14/M10 A3008 RMK A01 T01411097  RH  018%=      5-min Rain = 0
KBWS 230115Z 24007KT 14/M10 A3008 RMK A01 T01411097  RH  018%=      5-min Rain = 0
KBWS 230116Z 24007KT 14/M10 A3008 RMK A01 T01411097  RH  018%=      5-min Rain = 0
KBWS 230117Z 24008KT 14/M10 A3008 RMK A01 T01411098  RH  018%=      5-min Rain = 0
KBWS 230118Z 24007KT 14/M10 A3008 RMK A01 T01421099  RH  018%=      5-min Rain = 0
KBWS 230119Z 24007KT 14/M10 A3008 RMK A01 T01421099  RH  018%=      5-min Rain = 0
KBWS 230120Z 24007KT 14/M10 A3008 RMK A01 T01411098  RH  018%=      5-min Rain = 0
KBWS 230121Z 24007KT 14/M10 A3008 RMK A01 T01391097  RH  018%=      5-min Rain = 0
KBWS 230122Z 23006KT 14/M10 A3008 RMK A01 T01361096  RH  019%=      5-min Rain = 0
KBWS 230123Z 24006KT 13/M09 A3008 RMK A01 T01341094  RH  020%=      5-min Rain = 0
KBWS 230124Z 24007KT 13/M09 A3008 RMK A01 T01331092  RH  020%=      5-min Rain = 0
KBWS 230125Z 24007KT 13/M09 A3008 RMK A01 T01311092  RH  020%=      5-min Rain = 0
KBWS 230126Z 24007KT 13/M09 A3008 RMK A01 T01291092  RH  020%=      5-min Rain = 0
KBWS 230127Z 24007KT 13/M09 A3008 RMK A01 T01291093  RH  020%=      5-min Rain = 0
KBWS 230128Z 24007KT 13/M09 A3008 RMK A01 T01301094  RH  020%=      5-min Rain = 0
KBWS 230129Z 24007KT 13/M10 A3008 RMK A01 T01311095  RH  020%=      5-min Rain = 0
KBWS 230130Z 24007KT 13/M10 A3008 RMK A01 T01311095  RH  020%=      5-min Rain = 0
KBWS 230131Z 24007KT 13/M10 A3008 RMK A01 T01321095  RH  020%=      5-min Rain = 0
KBWS 230132Z 24008KT 13/M10 A3008 RMK A01 T01321095  RH  020%=      5-min Rain = 0
KBWS 230133Z 24008KT 13/M10 A3008 RMK A01 T01301095  RH  020%=      5-min Rain = 0
KBWS 230134Z 24009KT 13/M10 A3008 RMK A01 T01281095  RH  020%=      5-min Rain = 0
KBWS 230135Z 24009KT 13/M10 A3008 RMK A01 T01271095  RH  020%=      5-min Rain = 0
KBWS 230136Z 24009KT 13/M10 A3008 RMK A01 T01261095  RH  021%=      5-min Rain = 0
KBWS 230137Z 24009KT 13/M10 A3008 RMK A01 T01261095  RH  020%=      5-min Rain = 0
KBWS 230138Z 24009KT 13/M10 A3008 RMK A01 T01271095  RH  020%=      5-min Rain = 0
KBWS 230139Z 24009KT 13/M10 A3008 RMK A01 T01271095  RH  020%=      5-min Rain = 0
KBWS 230140Z 24009KT 13/M09 A3008 RMK A01 T01261094  RH  021%=      5-min Rain = 0
KBWS 230141Z 24009KT 12/M10 A3008 RMK A01 T01241095  RH  021%=      5-min Rain = 0
KBWS 230142Z 24008KT 12/M10 A3008 RMK A01 T01241096  RH  021%=      5-min Rain = 0
KBWS 230143Z 24008KT 12/M10 A3008 RMK A01 T01241097  RH  020%=      5-min Rain = 0
KBWS 230144Z 24008KT 13/M10 A3008 RMK A01 T01251097  RH  020%=      5-min Rain = 0
KBWS 230145Z 24008KT 13/M10 A3008 RMK A01 T01251097  RH  020%=      5-min Rain = 0
KBWS 230146Z 24008KT 13/M10 A3008 RMK A01 T01251097  RH  020%=      5-min Rain = 0
KBWS 230147Z 24008KT 13/M10 A3008 RMK A01 T01251097  RH  020%=      5-min Rain = 0
KBWS 230148Z 24008KT 12/M10 A3008 RMK A01 T01241096  RH  021%=      5-min Rain = 0
KBWS 230149Z 24008KT 12/M10 A3008 RMK A01 T01221096  RH  021%=      5-min Rain = 0
KBWS 230150Z 24008KT 12/M10 A3008 RMK A01 T01211096  RH  021%=      5-min Rain = 0
KBWS 230151Z 24008KT 12/M10 A3008 RMK A01 T01201096  RH  021%=      5-min Rain = 0
KBWS 230152Z 24008KT 12/M10 A3008 RMK A01 T01201096  RH  021%=      5-min Rain = 0
KBWS 230153Z 24009KT 12/M10 A3008 RMK A01 T01201095  RH  021%=      5-min Rain = 0
KBWS 230154Z 24009KT 12/M10 A3008 RMK A01 T01191095  RH  021%=      5-min Rain = 0
KBWS 230155Z 24009KT 12/M10 A3008 RMK A01 T01201095  RH  021%=      5-min Rain = 0
KBWS 230156Z 24009KT 12/M09 A3008 RMK A01 T01201094  RH  021%=      5-min Rain = 0
KBWS 230157Z 24008KT 12/M09 A3008 RMK A01 T01201094  RH  021%=      5-min Rain = 0
KBWS 230158Z 24008KT 12/M09 A3008 RMK A01 T01201094  RH  021%=      5-min Rain = 0
KBWS 230159Z 24008KT 12/M09 A3008 RMK A01 T01201094  RH  021%=      5-min Rain = 0
KBWS 230200Z 24008KT 12/M09 A3008 RMK A01 T01201094  RH  022%=      5-min Rain = 0
KBWS 230201Z 24008KT 12/M09 A3008 RMK A01 T01191093  RH  022%=      5-min Rain = 0
KBWS 230202Z 24009KT 12/M09 A3008 RMK A01 T01181093  RH  022%=      5-min Rain = 0
KBWS 230203Z 24009KT 12/M09 A3008 RMK A01 T01181093  RH  022%=      5-min Rain = 0
KBWS 230204Z 24008KT 12/M09 A3008 RMK A01 T01181094  RH  022%=      5-min Rain = 0
KBWS 230205Z 24009KT 12/M09 A3008 RMK A01 T01191094  RH  022%=      5-min Rain = 0
KBWS 230206Z 24009KT 12/M09 A3008 RMK A01 T01191094  RH  022%=      5-min Rain = 0
KBWS 230207Z 24009KT 12/M09 A3008 RMK A01 T01181094  RH  022%=      5-min Rain = 0
KBWS 230208Z 24009KT 12/M09 A3008 RMK A01 T01181094  RH  022%=      5-min Rain = 0
KBWS 230209Z 24010KT 12/M09 A3008 RMK A01 T01181093  RH  022%=      5-min Rain = 0
KBWS 230210Z 24010KT 12/M09 A3008 RMK A01 T01181094  RH  022%=      5-min Rain = 0
KBWS 230211Z 24010KT 12/M09 A3008 RMK A01 T01181094  RH  022%=      5-min Rain = 0
KBWS 230212Z 24010KT 12/M09 A3008 RMK A01 T01181094  RH  022%=      5-min Rain = 0
KBWS 230213Z 24010KT 12/M09 A3008 RMK A01 T01181094  RH  022%=      5-min Rain = 0
KBWS 230214Z 24010KT 12/M09 A3008 RMK A01 T01181094  RH  022%=      5-min Rain = 0
KBWS 230215Z 24010KT 12/M09 A3008 RMK A01 T01171094  RH  022%=      5-min Rain = 0
KBWS 230216Z 24010KT 12/M09 A3008 RMK A01 T01161094  RH  022%=      5-min Rain = 0
KBWS 230217Z 24009KT 12/M09 A3008 RMK A01 T01151094  RH  022%=      5-min Rain = 0
KBWS 230218Z 24009KT 11/M09 A3008 RMK A01 T01141094  RH  022%=      5-min Rain = 0
KBWS 230219Z 24010KT 11/M09 A3008 RMK A01 T01131093  RH  023%=      5-min Rain = 0
KBWS 230220Z 24010KT 11/M09 A3008 RMK A01 T01131093  RH  023%=      5-min Rain = 0
KBWS 230221Z 24010KT 11/M09 A3008 RMK A01 T01121093  RH  023%=      5-min Rain = 0
KBWS 230222Z 24010KT 11/M09 A3008 RMK A01 T01121093  RH  023%=      5-min Rain = 0
KBWS 230223Z 24010KT 11/M09 A3008 RMK A01 T01111093  RH  023%=      5-min Rain = 0
KBWS 230224Z 24009KT 11/M09 A3008 RMK A01 T01111093  RH  023%=      5-min Rain = 0
KBWS 230225Z 24009KT 11/M09 A3008 RMK A01 T01091093  RH  023%=      5-min Rain = 0
KBWS 230226Z 24009KT 11/M09 A3008 RMK A01 T01081093  RH  023%=      5-min Rain = 0
KBWS 230227Z 24009KT 11/M09 A3008 RMK A01 T01071093  RH  024%=      5-min Rain = 0
KBWS 230228Z 24009KT 11/M09 A3008 RMK A01 T01061093  RH  024%=      5-min Rain = 0
KBWS 230229Z 25009KT 11/M09 A3008 RMK A01 T01061093  RH  024%=      5-min Rain = 0
KBWS 230230Z 25009KT 11/M09 A3009 RMK A01 T01061094  RH  024%=      5-min Rain = 0
KBWS 230231Z 25009KT 11/M09 A3009 RMK A01 T01051094  RH  024%=      5-min Rain = 0
KBWS 230232Z 24009KT 10/M09 A3009 RMK A01 T01041094  RH  024%=      5-min Rain = 0
KBWS 230233Z 25010KT 10/M09 A3009 RMK A01 T01021093  RH  024%=      5-min Rain = 0
KBWS 230234Z 24010KT 10/M09 A3009 RMK A01 T01021093  RH  024%=      5-min Rain = 0
KBWS 230235Z 24010KT 10/M09 A3009 RMK A01 T01041093  RH  024%=      5-min Rain = 0
KBWS 230236Z 24010KT 11/M09 A3009 RMK A01 T01051092  RH  024%=      5-min Rain = 0
KBWS 230237Z 24010KT 11/M09 A3009 RMK A01 T01071093  RH  024%=      5-min Rain = 0
KBWS 230238Z 24011KT 11/M09 A3009 RMK A01 T01081093  RH  023%=      5-min Rain = 0
KBWS 230239Z 24010KT 11/M09 A3009 RMK A01 T01091094  RH  023%=      5-min Rain = 0
KBWS 230240Z 24011KT 11/M09 A3009 RMK A01 T01101094  RH  023%=      5-min Rain = 0
KBWS 230241Z 24010KT 11/M09 A3009 RMK A01 T01111094  RH  023%=      5-min Rain = 0
KBWS 230242Z 24010KT 11/M09 A3009 RMK A01 T01111094  RH  023%=      5-min Rain = 0
KBWS 230243Z 24009KT 11/M09 A3009 RMK A01 T01101094  RH  023%=      5-min Rain = 0
KBWS 230244Z 24009KT 11/M09 A3009 RMK A01 T01081093  RH  023%=      5-min Rain = 0
KBWS 230245Z 24009KT 11/M09 A3009 RMK A01 T01071093  RH  024%=      5-min Rain = 0
KBWS 230246Z 24010KT 11/M09 A3009 RMK A01 T01051092  RH  024%=      5-min Rain = 0
KBWS 230247Z 24010KT 10/M09 A3009 RMK A01 T01041092  RH  024%=      5-min Rain = 0
KBWS 230248Z 24009KT 10/M09 A3009 RMK A01 T01041092  RH  024%=      5-min Rain = 0
KBWS 230249Z 25009KT 10/M09 A3009 RMK A01 T01021091  RH  025%=      5-min Rain = 0
KBWS 230250Z 25008KT 10/M09 A3009 RMK A01 T00981091  RH  025%=      5-min Rain = 0
KBWS 230251Z 25008KT 10/M09 A3009 RMK A01 T00951093  RH  026%=      5-min Rain = 0
KBWS 230252Z 25008KT 09/M09 A3009 RMK A01 T00931094  RH  026%=      5-min Rain = 0
KBWS 230253Z 25007KT 09/M09 A3009 RMK A01 T00921093  RH  026%=      5-min Rain = 0
KBWS 230254Z 25008KT 09/M09 A3009 RMK A01 T00911092  RH  026%=      5-min Rain = 0
KBWS 230255Z 25008KT 09/M09 A3009 RMK A01 T00901091  RH  027%=      5-min Rain = 0
KBWS 230256Z 25008KT 09/M09 A3009 RMK A01 T00901092  RH  027%=      5-min Rain = 0
KBWS 230257Z 25008KT 09/M09 A3009 RMK A01 T00901092  RH  027%=      5-min Rain = 0
KBWS 230258Z 25008KT 09/M09 A3009 RMK A01 T00901092  RH  027%=      5-min Rain = 0
KBWS 230259Z 25008KT 09/M09 A3009 RMK A01 T00901093  RH  026%=      5-min Rain = 0
KBWS 230300Z 25009KT 09/M09 A3009 RMK A01 T00891094  RH  026%=      5-min Rain = 0
KBWS 230301Z 25008KT 09/M10 A3009 RMK A01 T00891095  RH  026%=      5-min Rain = 0
KBWS 230302Z 25008KT 09/M10 A3009 RMK A01 T00891096  RH  026%=      5-min Rain = 0
KBWS 230303Z 25008KT 09/M09 A3009 RMK A01 T00881094  RH  026%=      5-min Rain = 0
KBWS 230304Z 25008KT 09/M09 A3009 RMK A01 T00871094  RH  027%=      5-min Rain = 0
KBWS 230305Z 25009KT 09/M10 A3009 RMK A01 T00861095  RH  027%=      5-min Rain = 0
KBWS 230306Z 25009KT 09/M10 A3009 RMK A01 T00871095  RH  027%=      5-min Rain = 0
KBWS 230307Z 25009KT 09/M10 A3009 RMK A01 T00871095  RH  027%=      5-min Rain = 0
KBWS 230308Z 25009KT 09/M10 A3009 RMK A01 T00871095  RH  026%=      5-min Rain = 0
KBWS 230309Z 25009KT 09/M09 A3009 RMK A01 T00881094  RH  027%=      5-min Rain = 0
KBWS 230310Z 25010KT 09/M10 A3009 RMK A01 T00881095  RH  026%=      5-min Rain = 0
KBWS 230311Z 25010KT 09/M10 A3009 RMK A01 T00901095  RH  026%=      5-min Rain = 0
KBWS 230312Z 25010KT 09/M10 A3009 RMK A01 T00921095  RH  026%=      5-min Rain = 0
KBWS 230313Z 25010KT 09/M10 A3009 RMK A01 T00941096  RH  025%=      5-min Rain = 0
KBWS 230314Z 25010KT 10/M10 A3009 RMK A01 T00951096  RH  025%=      5-min Rain = 0
KBWS 230315Z 25010KT 10/M10 A301 RMK A01 T00951096  RH  025%=      5-min Rain = 0
KBWS 230316Z 26010KT 10/M10 A301 RMK A01 T00951096  RH  025%=      5-min Rain = 0
KBWS 230317Z 25011KT 10/M10 A301 RMK A01 T00951096  RH  025%=      5-min Rain = 0
KBWS 230318Z 25011KT 10/M10 A301 RMK A01 T00951096  RH  025%=      5-min Rain = 0
KBWS 230319Z 25011KT 10/M10 A301 RMK A01 T00951096  RH  025%=      5-min Rain = 0
KBWS 230320Z 25011KT 10/M10 A301 RMK A01 T00951095  RH  025%=      5-min Rain = 0
KBWS 230321Z 25011KT 09/M10 A301 RMK A01 T00941095  RH  025%=      5-min Rain = 0
KBWS 230322Z 25011KT 09/M10 A301 RMK A01 T00931095  RH  025%=      5-min Rain = 0
KBWS 230323Z 25011KT 09/M09 A301 RMK A01 T00921094  RH  026%=      5-min Rain = 0
KBWS 230324Z 25011KT 09/M09 A301 RMK A01 T00911094  RH  026%=      5-min Rain = 0
KBWS 230325Z 25011KT 09/M09 A301 RMK A01 T00891093  RH  026%=      5-min Rain = 0
KBWS 230326Z 25011KT 09/M09 A301 RMK A01 T00881094  RH  027%=      5-min Rain = 0
KBWS 230327Z 25011KT 09/M09 A301 RMK A01 T00881093  RH  027%=      5-min Rain = 0
KBWS 230328Z 25011KT 09/M09 A301 RMK A01 T00881093  RH  027%=      5-min Rain = 0
KBWS 230329Z 25011KT 09/M09 A301 RMK A01 T00871093  RH  027%=      5-min Rain = 0
KBWS 230330Z 25010KT 09/M09 A301 RMK A01 T00871093  RH  027%=      5-min Rain = 0
KBWS 230331Z 25010KT 09/M09 A301 RMK A01 T00871093  RH  027%=      5-min Rain = 0
KBWS 230332Z 25011KT 09/M09 A301 RMK A01 T00871093  RH  027%=      5-min Rain = 0
KBWS 230333Z 25010KT 09/M09 A301 RMK A01 T00871093  RH  027%=      5-min Rain = 0
KBWS 230334Z 25011KT 09/M09 A301 RMK A01 T00871093  RH  027%=      5-min Rain = 0
KBWS 230335Z 25011KT 09/M09 A301 RMK A01 T00871093  RH  027%=      5-min Rain = 0
KBWS 230336Z 25011KT 09/M09 A301 RMK A01 T00871093  RH  027%=      5-min Rain = 0
KBWS 230337Z 25011KT 09/M09 A301 RMK A01 T00871092  RH  027%=      5-min Rain = 0
KBWS 230338Z 25011KT 08/M09 A301 RMK A01 T00841091  RH  028%=      5-min Rain = 0
KBWS 230339Z 25011KT 08/M09 A301 RMK A01 T00821091  RH  028%=      5-min Rain = 0
KBWS 230340Z 25011KT 08/M09 A301 RMK A01 T00801090  RH  029%=      5-min Rain = 0
KBWS 230341Z 24010KT 08/M09 A301 RMK A01 T00791090  RH  029%=      5-min Rain = 0
KBWS 230342Z 25011KT 08/M09 A301 RMK A01 T00791090  RH  029%=      5-min Rain = 0
KBWS 230343Z 24010KT 08/M09 A301 RMK A01 T00781090  RH  029%=      5-min Rain = 0
KBWS 230344Z 24010KT 08/M09 A301 RMK A01 T00781090  RH  029%=      5-min Rain = 0
KBWS 230345Z 23009KT 08/M09 A301 RMK A01 T00781090  RH  029%=      5-min Rain = 0
KBWS 230346Z 24009KT 08/M09 A301 RMK A01 T00781091  RH  029%=      5-min Rain = 0
KBWS 230347Z 24009KT 08/M09 A301 RMK A01 T00781091  RH  029%=      5-min Rain = 0
KBWS 230348Z 24009KT 08/M09 A301 RMK A01 T00791091  RH  029%=      5-min Rain = 0
KBWS 230349Z 24009KT 08/M09 A301 RMK A01 T00781090  RH  029%=      5-min Rain = 0
KBWS 230350Z 24008KT 08/M09 A301 RMK A01 T00781090  RH  029%=      5-min Rain = 0
KBWS 230351Z 24009KT 08/M09 A301 RMK A01 T00781090  RH  029%=      5-min Rain = 0
KBWS 230352Z 24009KT 08/M09 A301 RMK A01 T00771089  RH  030%=      5-min Rain = 0
KBWS 230353Z 25008KT 07/M09 A301 RMK A01 T00741089  RH  030%=      5-min Rain = 0
KBWS 230354Z 25008KT 07/M09 A301 RMK A01 T00731089  RH  031%=      5-min Rain = 0
KBWS 230355Z 25008KT 07/M09 A301 RMK A01 T00711089  RH  031%=      5-min Rain = 0
KBWS 230356Z 25009KT 07/M09 A301 RMK A01 T00701089  RH  031%=      5-min Rain = 0
KBWS 230357Z 25009KT 07/M09 A301 RMK A01 T00691091  RH  031%=      5-min Rain = 0
KBWS 230358Z 25010KT 07/M09 A301 RMK A01 T00721091  RH  030%=      5-min Rain = 0
KBWS 230359Z 25010KT 08/M09 A301 RMK A01 T00761091  RH  029%=      5-min Rain = 0
KBWS 230400Z 25010KT 08/M09 A301 RMK A01 T00791092  RH  029%=      5-min Rain = 0
KBWS 230401Z 25011KT 08/M09 A301 RMK A01 T00801092  RH  028%=      5-min Rain = 0
KBWS 230402Z 25010KT 08/M09 A301 RMK A01 T00811093  RH  028%=      5-min Rain = 0
KBWS 230403Z 25011KT 08/M09 A301 RMK A01 T00821093  RH  028%=      5-min Rain = 0
KBWS 230404Z 25011KT 08/M09 A301 RMK A01 T00821093  RH  028%=      5-min Rain = 0
KBWS 230405Z 25012KT 08/M09 A301 RMK A01 T00821092  RH  028%=      5-min Rain = 0
KBWS 230406Z 25012KT 08/M09 A301 RMK A01 T00801091  RH  029%=      5-min Rain = 0
KBWS 230407Z 25012KT 08/M09 A301 RMK A01 T00791091  RH  029%=      5-min Rain = 0
KBWS 230408Z 25011KT 08/M09 A301 RMK A01 T00791091  RH  029%=      5-min Rain = 0
KBWS 230409Z 25011KT 08/M09 A301 RMK A01 T00791091  RH  029%=      5-min Rain = 0
KBWS 230410Z 25011KT 08/M09 A301 RMK A01 T00791091  RH  029%=      5-min Rain = 0
KBWS 230411Z 25011KT 08/M09 A301 RMK A01 T00771091  RH  029%=      5-min Rain = 0
KBWS 230412Z 25011KT 08/M09 A301 RMK A01 T00761091  RH  029%=      5-min Rain = 0
KBWS 230413Z 25011KT 08/M09 A301 RMK A01 T00761091  RH  029%=      5-min Rain = 0
KBWS 230414Z 25011KT 08/M09 A301 RMK A01 T00761091  RH  029%=      5-min Rain = 0
KBWS 230415Z 25011KT 08/M09 A301 RMK A01 T00751092  RH  030%=      5-min Rain = 0
KBWS 230416Z 25011KT 07/M09 A301 RMK A01 T00741092  RH  030%=      5-min Rain = 0
KBWS 230417Z 25011KT 07/M09 A301 RMK A01 T00731091  RH  030%=      5-min Rain = 0
KBWS 230418Z 25011KT 07/M09 A3011 RMK A01 T00721091  RH  030%=      5-min Rain = 0
KBWS 230419Z 25011KT 07/M09 A3011 RMK A01 T00721091  RH  030%=      5-min Rain = 0
KBWS 230420Z 25011KT 07/M09 A3011 RMK A01 T00711091  RH  031%=      5-min Rain = 0
KBWS 230421Z 25010KT 07/M09 A3011 RMK A01 T00701090  RH  031%=      5-min Rain = 0
KBWS 230422Z 25010KT 07/M09 A3011 RMK A01 T00691090  RH  031%=      5-min Rain = 0
KBWS 230423Z 25010KT 07/M09 A3011 RMK A01 T00681090  RH  031%=      5-min Rain = 0
KBWS 230424Z 25010KT 07/M09 A3011 RMK A01 T00681090  RH  032%=      5-min Rain = 0
KBWS 230425Z 25011KT 07/M09 A3011 RMK A01 T00671090  RH  032%=      5-min Rain = 0
KBWS 230426Z 25011KT 07/M09 A3011 RMK A01 T00671089  RH  032%=      5-min Rain = 0
KBWS 230427Z 25011KT 07/M09 A3011 RMK A01 T00671089  RH  032%=      5-min Rain = 0
KBWS 230428Z 24012KT 07/M09 A3011 RMK A01 T00671089  RH  032%=      5-min Rain = 0
KBWS 230429Z 25012KT 07/M09 A3011 RMK A01 T00671089  RH  032%=      5-min Rain = 0
KBWS 230430Z 24012KT 07/M09 A3011 RMK A01 T00671089  RH  032%=      5-min Rain = 0
KBWS 230431Z 24012KT 07/M09 A3011 RMK A01 T00671088  RH  032%=      5-min Rain = 0
KBWS 230432Z 24012KT 07/M09 A3011 RMK A01 T00671088  RH  032%=      5-min Rain = 0
KBWS 230433Z 24012KT 07/M09 A3011 RMK A01 T00671088  RH  032%=      5-min Rain = 0
KBWS 230434Z 24012KT 07/M09 A3011 RMK A01 T00671088  RH  032%=      5-min Rain = 0
KBWS 230435Z 24012KT 07/M09 A3011 RMK A01 T00691089  RH  032%=      5-min Rain = 0
KBWS 230436Z 24012KT 07/M09 A3011 RMK A01 T00711089  RH  031%=      5-min Rain = 0
KBWS 230437Z 24011KT 07/M09 A3011 RMK A01 T00721089  RH  031%=      5-min Rain = 0
KBWS 230438Z 24011KT 07/M09 A3011 RMK A01 T00731089  RH  031%=      5-min Rain = 0
KBWS 230439Z 24012KT 07/M09 A3011 RMK A01 T00731089  RH  031%=      5-min Rain = 0
KBWS 230440Z 24012KT 07/M09 A3011 RMK A01 T00731089  RH  031%=      5-min Rain = 0
KBWS 230441Z 24013KT 07/M09 A3011 RMK A01 T00741089  RH  030%=      5-min Rain = 0
KBWS 230442Z 24013KT 08/M09 A3011 RMK A01 T00751089  RH  030%=      5-min Rain = 0
KBWS 230443Z 24013KT 08/M09 A301 RMK A01 T00761089  RH  030%=      5-min Rain = 0
KBWS 230444Z 24013KT 08/M09 A301 RMK A01 T00771089  RH  030%=      5-min Rain = 0
KBWS 230445Z 24013KT 08/M09 A301 RMK A01 T00781089  RH  029%=      5-min Rain = 0
KBWS 230446Z 24013KT 08/M09 A301 RMK A01 T00791089  RH  029%=      5-min Rain = 0
KBWS 230447Z 24013KT 08/M09 A301 RMK A01 T00791089  RH  029%=      5-min Rain = 0
KBWS 230448Z 24013KT 08/M09 A301 RMK A01 T00791089  RH  029%=      5-min Rain = 0
KBWS 230449Z 24013KT 08/M09 A301 RMK A01 T00801089  RH  029%=      5-min Rain = 0
KBWS 230450Z 24013KT 08/M09 A301 RMK A01 T00811088  RH  029%=      5-min Rain = 0
KBWS 230451Z 24012KT 08/M09 A301 RMK A01 T00811088  RH  029%=      5-min Rain = 0
KBWS 230452Z 24012KT 08/M09 A301 RMK A01 T00811088  RH  029%=      5-min Rain = 0
KBWS 230453Z 24012KT 08/M09 A301 RMK A01 T00801088  RH  029%=      5-min Rain = 0
KBWS 230454Z 24012KT 08/M09 A301 RMK A01 T00791088  RH  030%=      5-min Rain = 0
KBWS 230455Z 24012KT 08/M09 A301 RMK A01 T00781087  RH  030%=      5-min Rain = 0
KBWS 230456Z 24011KT 08/M09 A301 RMK A01 T00771087  RH  030%=      5-min Rain = 0
KBWS 230457Z 25011KT 08/M09 A301 RMK A01 T00771087  RH  030%=      5-min Rain = 0
KBWS 230458Z 25012KT 08/M09 A301 RMK A01 T00771087  RH  030%=      5-min Rain = 0
KBWS 230459Z 25011KT 08/M09 A301 RMK A01 T00761087  RH  030%=      5-min Rain = 0
KBWS 230500Z 25011KT 08/M09 A301 RMK A01 T00761088  RH  030%=      5-min Rain = 0
KBWS 230501Z 26011KT 08/M09 A301 RMK A01 T00761088  RH  030%=      5-min Rain = 0
KBWS 230502Z 26009KT 08/M09 A301 RMK A01 T00761087  RH  030%=      5-min Rain = 0
KBWS 230503Z 26010KT 08/M09 A301 RMK A01 T00761087  RH  030%=      5-min Rain = 0
KBWS 230504Z 26009KT 08/M09 A301 RMK A01 T00781087  RH  030%=      5-min Rain = 0
KBWS 230505Z 27009KT 08/M09 A301 RMK A01 T00801087  RH  030%=      5-min Rain = 0
KBWS 230506Z 28008KT 08/M09 A301 RMK A01 T00801086  RH  030%=      5-min Rain = 0
KBWS 230507Z 28008KT 08/M08 A301 RMK A01 T00791084  RH  030%=      5-min Rain = 0
KBWS 230508Z 28008KT 08/M08 A301 RMK A01 T00761084  RH  031%=      5-min Rain = 0
KBWS 230509Z 28007KT 07/M08 A301 RMK A01 T00741083  RH  032%=      5-min Rain = 0
KBWS 230510Z 27008KT 07/M08 A301 RMK A01 T00731083  RH  032%=      5-min Rain = 0
KBWS 230511Z 27007KT 07/M08 A301 RMK A01 T00711083  RH  032%=      5-min Rain = 0
KBWS 230512Z 27008KT 07/M08 A301 RMK A01 T00711082  RH  033%=      5-min Rain = 0
KBWS 230513Z 26008KT 07/M08 A301 RMK A01 T00711083  RH  033%=      5-min Rain = 0
KBWS 230514Z 26007KT 07/M08 A301 RMK A01 T00721083  RH  032%=      5-min Rain = 0
KBWS 230515Z 26008KT 07/M08 A301 RMK A01 T00731083  RH  032%=      5-min Rain = 0
KBWS 230516Z 27008KT 07/M08 A301 RMK A01 T00741083  RH  032%=      5-min Rain = 0
KBWS 230517Z 26009KT 08/M08 A301 RMK A01 T00751084  RH  031%=      5-min Rain = 0
KBWS 230518Z 26008KT 08/M08 A301 RMK A01 T00761084  RH  031%=      5-min Rain = 0
KBWS 230519Z 27008KT 08/M08 A301 RMK A01 T00781084  RH  031%=      5-min Rain = 0
KBWS 230520Z 27008KT 08/M08 A301 RMK A01 T00771084  RH  031%=      5-min Rain = 0
KBWS 230521Z 28006KT 08/M08 A301 RMK A01 T00761082  RH  032%=      5-min Rain = 0
KBWS 230522Z 28006KT 07/M08 A301 RMK A01 T00741082  RH  032%=      5-min Rain = 0
KBWS 230523Z 27006KT 07/M08 A301 RMK A01 T00721082  RH  033%=      5-min Rain = 0
KBWS 230524Z 27006KT 07/M08 A301 RMK A01 T00691082  RH  033%=      5-min Rain = 0
KBWS 230525Z 26007KT 07/M08 A301 RMK A01 T00681081  RH  034%=      5-min Rain = 0
KBWS 230526Z 26007KT 07/M08 A301 RMK A01 T00681081  RH  034%=      5-min Rain = 0
KBWS 230527Z 26008KT 07/M08 A301 RMK A01 T00681082  RH  033%=      5-min Rain = 0
KBWS 230528Z 26009KT 07/M08 A301 RMK A01 T00681083  RH  033%=      5-min Rain = 0
KBWS 230529Z 26008KT 07/M08 A301 RMK A01 T00711083  RH  033%=      5-min Rain = 0
KBWS 230530Z 27008KT 07/M08 A301 RMK A01 T00721083  RH  032%=      5-min Rain = 0
KBWS 230531Z 27008KT 07/M08 A301 RMK A01 T00731083  RH  032%=      5-min Rain = 0
KBWS 230532Z 26008KT 07/M08 A301 RMK A01 T00721083  RH  032%=      5-min Rain = 0
KBWS 230533Z 26008KT 07/M08 A301 RMK A01 T00711083  RH  032%=      5-min Rain = 0
KBWS 230534Z 26007KT 07/M08 A301 RMK A01 T00701083  RH  033%=      5-min Rain = 0
KBWS 230535Z 27007KT 07/M08 A301 RMK A01 T00701083  RH  033%=      5-min Rain = 0
KBWS 230536Z 27008KT 07/M08 A301 RMK A01 T00701081  RH  033%=      5-min Rain = 0
KBWS 230537Z 27009KT 07/M08 A3009 RMK A01 T00691081  RH  033%=      5-min Rain = 0
KBWS 230538Z 26009KT 07/M08 A3009 RMK A01 T00681081  RH  034%=      5-min Rain = 0
KBWS 230539Z 26008KT 07/M08 A3009 RMK A01 T00681081  RH  033%=      5-min Rain = 0
KBWS 230540Z 26008KT 07/M08 A3009 RMK A01 T00691081  RH  033%=      5-min Rain = 0
KBWS 230541Z 27008KT 07/M08 A3009 RMK A01 T00691082  RH  033%=      5-min Rain = 0
KBWS 230542Z 27009KT 07/M08 A3009 RMK A01 T00701081  RH  033%=      5-min Rain = 0
KBWS 230543Z 27009KT 07/M08 A3009 RMK A01 T00721081  RH  033%=      5-min Rain = 0
KBWS 230544Z 28008KT 07/M08 A3009 RMK A01 T00721080  RH  033%=      5-min Rain = 0
KBWS 230545Z 28008KT 07/M08 A3009 RMK A01 T00701080  RH  033%=      5-min Rain = 0
KBWS 230546Z 28008KT 07/M08 A3009 RMK A01 T00681080  RH  034%=      5-min Rain = 0
KBWS 230547Z 28009KT 07/M08 A3009 RMK A01 T00671080  RH  034%=      5-min Rain = 0
KBWS 230548Z 27009KT 07/M08 A3009 RMK A01 T00661080  RH  034%=      5-min Rain = 0
KBWS 230549Z 27010KT 07/M08 A3009 RMK A01 T00661080  RH  034%=      5-min Rain = 0
KBWS 230550Z 27009KT 07/M08 A3009 RMK A01 T00671081  RH  034%=      5-min Rain = 0
KBWS 230551Z 28009KT 07/M08 A3009 RMK A01 T00681081  RH  034%=      5-min Rain = 0
KBWS 230552Z 29008KT 07/M08 A301 RMK A01 T00691081  RH  034%=      5-min Rain = 0
KBWS 230553Z 34009KT 07/M08 A301 RMK A01 T00681081  RH  034%=      5-min Rain = 0
KBWS 230554Z 32009KT 07/M08 A301 RMK A01 T00651084  RH  034%=      5-min Rain = 0
KBWS 230555Z 29007KT 06/M08 A301 RMK A01 T00631084  RH  034%=      5-min Rain = 0
KBWS 230556Z 31008KT 06/M08 A301 RMK A01 T00621083  RH  034%=      5-min Rain = 0
KBWS 230557Z 30008KT 06/M08 A301 RMK A01 T00611083  RH  035%=      5-min Rain = 0
KBWS 230558Z 29008KT 06/M08 A3009 RMK A01 T00601083  RH  035%=      5-min Rain = 0
KBWS 230559Z 29007KT 06/M08 A3009 RMK A01 T00591082  RH  036%=      5-min Rain = 0

Page generated in 0.227 seconds.